Observation data for Palo Duro Canyon State Park Floor on 08/14/2019      Previous  Date  Next       Current Mesonet Observations  Soil Data  Daily Summary Page  Observations in Plain Language
KPD2 140500Z 15004KT 26/18 A3014 RMK A01 T02640181  RH  060%=      5-min Rain = 0
KPD2 140501Z 14005KT 26/18 A3014 RMK A01 T02630181  RH  061%=      5-min Rain = 0
KPD2 140502Z 14005KT 26/18 A3014 RMK A01 T02620181  RH  061%=      5-min Rain = 0
KPD2 140503Z 13005KT 26/18 A3014 RMK A01 T02620181  RH  061%=      5-min Rain = 0
KPD2 140504Z 13007KT 26/18 A3014 RMK A01 T02620181  RH  061%=      5-min Rain = 0
KPD2 140505Z 12006KT 26/18 A3014 RMK A01 T02620180  RH  061%=      5-min Rain = 0
KPD2 140506Z 13006KT 26/18 A3014 RMK A01 T02620180  RH  060%=      5-min Rain = 0
KPD2 140507Z 13006KT 26/18 A3014 RMK A01 T02630180  RH  060%=      5-min Rain = 0
KPD2 140508Z 13006KT 26/18 A3014 RMK A01 T02640180  RH  060%=      5-min Rain = 0
KPD2 140509Z 14005KT 27/18 A3014 RMK A01 T02650180  RH  060%=      5-min Rain = 0
KPD2 140510Z 14005KT 27/18 A3014 RMK A01 T02650180  RH  060%=      5-min Rain = 0
KPD2 140524Z 11009KT 27/18 A3016 RMK A01 T02660179  RH  059%=      5-min Rain = 0
KPD2 140525Z 10007KT 27/18 A3016 RMK A01 T02660179  RH  059%=      5-min Rain = 0
KPD2 140526Z 11005KT 27/18 A3016 RMK A01 T02660179  RH  059%=      5-min Rain = 0
KPD2 140527Z 10006KT 27/18 A3016 RMK A01 T02660179  RH  059%=      5-min Rain = 0
KPD2 140528Z 10008KT 27/18 A3016 RMK A01 T02660179  RH  059%=      5-min Rain = 0
KPD2 140529Z 09006KT 27/18 A3016 RMK A01 T02670179  RH  059%=      5-min Rain = 0
KPD2 140530Z 10008KT 27/18 A3016 RMK A01 T02670179  RH  059%=      5-min Rain = 0
KPD2 140531Z 10009KT 27/18 A3017 RMK A01 T02670179  RH  059%=      5-min Rain = 0
KPD2 140532Z 11008KT 27/18 A3016 RMK A01 T02670179  RH  058%=      5-min Rain = 0
KPD2 140533Z 10010KT 27/18 A3016 RMK A01 T02680179  RH  058%=      5-min Rain = 0
KPD2 140534Z 10010G15KT 27/18 A3016 RMK A01 T02680179  RH  058%=      5-min Rain = 0
KPD2 140535Z 10006KT 27/18 A3016 RMK A01 T02680179  RH  058%=      5-min Rain = 0
KPD2 140536Z 10009KT 27/18 A3017 RMK A01 T02680180  RH  058%=      5-min Rain = 0
KPD2 140537Z 09008KT 27/18 A3017 RMK A01 T02680180  RH  058%=      5-min Rain = 0
KPD2 140538Z 10007KT 27/18 A3017 RMK A01 T02670179  RH  059%=      5-min Rain = 0
KPD2 140539Z 10007KT 27/18 A3017 RMK A01 T02670179  RH  059%=      5-min Rain = 0
KPD2 140540Z 10009KT 27/18 A3017 RMK A01 T02660179  RH  059%=      5-min Rain = 0
KPD2 140541Z 10009G14KT 27/18 A3017 RMK A01 T02660179  RH  059%=      5-min Rain = 0
KPD2 140542Z 09006KT 27/18 A3017 RMK A01 T02660179  RH  059%=      5-min Rain = 0
KPD2 140543Z 11007KT 27/18 A3017 RMK A01 T02660179  RH  059%=      5-min Rain = 0
KPD2 140544Z 11004KT 27/18 A3017 RMK A01 T02660179  RH  059%=      5-min Rain = 0
KPD2 140545Z 11006KT 27/18 A3017 RMK A01 T02660179  RH  059%=      5-min Rain = 0
KPD2 140546Z 13004KT 27/18 A3017 RMK A01 T02650179  RH  059%=      5-min Rain = 0
KPD2 140547Z 12005KT 27/18 A3017 RMK A01 T02650179  RH  059%=      5-min Rain = 0
KPD2 140548Z 12007KT 27/18 A3017 RMK A01 T02650179  RH  059%=      5-min Rain = 0
KPD2 140549Z 11006KT 26/18 A3017 RMK A01 T02640179  RH  059%=      5-min Rain = 0
KPD2 140550Z 11006KT 26/18 A3017 RMK A01 T02640179  RH  060%=      5-min Rain = 0
KPD2 140551Z 12005KT 26/18 A3017 RMK A01 T02630179  RH  060%=      5-min Rain = 0
KPD2 140552Z 13003KT 26/18 A3017 RMK A01 T02630179  RH  060%=      5-min Rain = 0
KPD2 140553Z 13004KT 26/18 A3017 RMK A01 T02630179  RH  060%=      5-min Rain = 0
KPD2 140554Z 12004KT 26/18 A3017 RMK A01 T02620179  RH  060%=      5-min Rain = 0
KPD2 140555Z 14003KT 26/18 A3017 RMK A01 T02620179  RH  060%=      5-min Rain = 0
KPD2 140556Z 13003KT 26/18 A3017 RMK A01 T02620179  RH  060%=      5-min Rain = 0
KPD2 140557Z 13002KT 26/18 A3017 RMK A01 T02610179  RH  060%=      5-min Rain = 0
KPD2 140558Z 10002KT 26/18 A3017 RMK A01 T02610179  RH  060%=      5-min Rain = 0
KPD2 140559Z 12002KT 26/18 A3017 RMK A01 T02600178  RH  061%=      5-min Rain = 0
KPD2 140600Z 13003KT 26/18 A3017 RMK A01 T02600179  RH  061%=      5-min Rain = 0
KPD2 140601Z 14003KT 26/18 A3017 RMK A01 T02590179  RH  061%=      5-min Rain = 0
KPD2 140602Z 13003KT 26/18 A3017 RMK A01 T02590179  RH  061%=      5-min Rain = 0
KPD2 140603Z 14004KT 26/18 A3017 RMK A01 T02590179  RH  061%=      5-min Rain = 0
KPD2 140604Z 10003KT 26/18 A3017 RMK A01 T02580178  RH  061%=      5-min Rain = 0
KPD2 140605Z 12003KT 26/18 A3017 RMK A01 T02580178  RH  061%=      5-min Rain = 0
KPD2 140606Z 12004KT 26/18 A3017 RMK A01 T02580178  RH  061%=      5-min Rain = 0
KPD2 140607Z 11003KT 26/18 A3017 RMK A01 T02580178  RH  061%=      5-min Rain = 0
KPD2 140608Z 10002KT 26/18 A3017 RMK A01 T02580178  RH  061%=      5-min Rain = 0
KPD2 140609Z 11002KT 26/18 A3017 RMK A01 T02580178  RH  061%=      5-min Rain = 0
KPD2 140610Z 12005KT 26/18 A3016 RMK A01 T02580178  RH  061%=      5-min Rain = 0
KPD2 140611Z 12004KT 26/18 A3016 RMK A01 T02580178  RH  061%=      5-min Rain = 0
KPD2 140612Z 13005KT 26/18 A3016 RMK A01 T02580178  RH  061%=      5-min Rain = 0
KPD2 140613Z 11005KT 26/18 A3016 RMK A01 T02590178  RH  061%=      5-min Rain = 0
KPD2 140614Z 10007KT 26/18 A3016 RMK A01 T02590178  RH  061%=      5-min Rain = 0
KPD2 140615Z 12003KT 26/18 A3016 RMK A01 T02590178  RH  061%=      5-min Rain = 0
KPD2 140616Z 15004KT 26/18 A3016 RMK A01 T02590178  RH  061%=      5-min Rain = 0
KPD2 140617Z 12006KT 26/18 A3016 RMK A01 T02600178  RH  061%=      5-min Rain = 0
KPD2 140618Z 12003KT 26/18 A3016 RMK A01 T02600178  RH  061%=      5-min Rain = 0
KPD2 140619Z 12004KT 26/18 A3016 RMK A01 T02600179  RH  061%=      5-min Rain = 0
KPD2 140620Z 13003KT 26/18 A3016 RMK A01 T02590178  RH  061%=      5-min Rain = 0
KPD2 140621Z 13005KT 26/18 A3016 RMK A01 T02590179  RH  061%=      5-min Rain = 0
KPD2 140622Z 12003KT 26/18 A3016 RMK A01 T02590178  RH  061%=      5-min Rain = 0
KPD2 140623Z 10002G7KT 26/18 A3016 RMK A01 T02590178  RH  061%=      5-min Rain = 0
KPD2 140624Z 10005KT 26/18 A3016 RMK A01 T02580178  RH  061%=      5-min Rain = 0
KPD2 140625Z 12003KT 26/18 A3016 RMK A01 T02580178  RH  061%=      5-min Rain = 0
KPD2 140626Z 12003KT 26/18 A3016 RMK A01 T02570178  RH  062%=      5-min Rain = 0
KPD2 140627Z 10004KT 26/18 A3016 RMK A01 T02570178  RH  062%=      5-min Rain = 0
KPD2 140628Z 12004KT 26/18 A3016 RMK A01 T02570178  RH  062%=      5-min Rain = 0
KPD2 140629Z 13002KT 26/18 A3016 RMK A01 T02570179  RH  062%=      5-min Rain = 0
KPD2 140630Z 13003KT 26/18 A3016 RMK A01 T02570178  RH  062%=      5-min Rain = 0
KPD2 140631Z 10003KT 26/18 A3016 RMK A01 T02560178  RH  062%=      5-min Rain = 0
KPD2 140632Z 12005KT 26/18 A3016 RMK A01 T02560178  RH  062%=      5-min Rain = 0
KPD2 140633Z 10003KT 26/18 A3016 RMK A01 T02560178  RH  062%=      5-min Rain = 0
KPD2 140634Z 11005KT 26/18 A3016 RMK A01 T02560178  RH  062%=      5-min Rain = 0
KPD2 140635Z 13004KT 26/18 A3016 RMK A01 T02560178  RH  062%=      5-min Rain = 0
KPD2 140636Z 12003KT 26/18 A3016 RMK A01 T02560178  RH  062%=      5-min Rain = 0
KPD2 140637Z 11006KT 26/18 A3016 RMK A01 T02550178  RH  062%=      5-min Rain = 0
KPD2 140638Z 13003KT 26/18 A3016 RMK A01 T02560178  RH  062%=      5-min Rain = 0
KPD2 140639Z 10003KT 26/18 A3016 RMK A01 T02560178  RH  062%=      5-min Rain = 0
KPD2 140640Z 12003KT 26/18 A3016 RMK A01 T02550178  RH  062%=      5-min Rain = 0
KPD2 140641Z 11003KT 26/18 A3016 RMK A01 T02550178  RH  062%=      5-min Rain = 0
KPD2 140642Z 11002KT 25/18 A3016 RMK A01 T02540178  RH  063%=      5-min Rain = 0
KPD2 140643Z 13002KT 25/18 A3016 RMK A01 T02540178  RH  063%=      5-min Rain = 0
KPD2 140644Z 13003KT 25/18 A3016 RMK A01 T02540178  RH  063%=      5-min Rain = 0
KPD2 140645Z 14004KT 25/18 A3016 RMK A01 T02540178  RH  063%=      5-min Rain = 0
KPD2 140646Z 19002KT 25/18 A3016 RMK A01 T02540178  RH  063%=      5-min Rain = 0
KPD2 140647Z 20002KT 25/18 A3016 RMK A01 T02540178  RH  063%=      5-min Rain = 0
KPD2 140648Z 18002KT 25/18 A3016 RMK A01 T02520177  RH  063%=      5-min Rain = 0
KPD2 140649Z 09000KT 25/18 A3016 RMK A01 T02510177  RH  063%=      5-min Rain = 0
KPD2 140650Z 06003KT 25/18 A3016 RMK A01 T02500177  RH  064%=      5-min Rain = 0
KPD2 140651Z 03008KT 25/18 A3017 RMK A01 T02490178  RH  065%=      5-min Rain = 0
KPD2 140652Z 11006KT 25/18 A3017 RMK A01 T02480179  RH  065%=      5-min Rain = 0
KPD2 140653Z 08005G11KT 25/18 A3018 RMK A01 T02490180  RH  065%=      5-min Rain = 0
KPD2 140654Z 06008G15KT 25/18 A3018 RMK A01 T02500181  RH  066%=      5-min Rain = 0
KPD2 140655Z 05005G14KT 25/18 A3018 RMK A01 T02490181  RH  066%=      5-min Rain = 0
KPD2 140656Z 05006KT 25/18 A3018 RMK A01 T02460178  RH  066%=      5-min Rain = 0
KPD2 140657Z 03009KT 24/18 A3018 RMK A01 T02440177  RH  066%=      5-min Rain = 0
KPD2 140658Z 36003KT 24/18 A3018 RMK A01 T02420175  RH  066%=      5-min Rain = 0
KPD2 140659Z 35002KT 24/18 A3019 RMK A01 T02410175  RH  067%=      5-min Rain = 0
KPD2 140700Z 01003KT 24/17 A3019 RMK A01 T02390174  RH  067%=      5-min Rain = 0
KPD2 140701Z 06003KT 24/17 A3019 RMK A01 T02380173  RH  067%=      5-min Rain = 0
KPD2 140702Z 05004KT 24/17 A3019 RMK A01 T02370171  RH  066%=      5-min Rain = 0
KPD2 140703Z 08005G11KT 24/17 A3019 RMK A01 T02360168  RH  066%=      5-min Rain = 0
KPD2 140704Z 10004KT 24/17 A3019 RMK A01 T02350166  RH  065%=      5-min Rain = 0
KPD2 140705Z 15005KT 23/16 A3018 RMK A01 T02340164  RH  065%=      5-min Rain = 0
KPD2 140706Z 14003KT 23/16 A3018 RMK A01 T02320163  RH  065%=      5-min Rain = 0
KPD2 140707Z 14006KT 23/16 A3018 RMK A01 T02310163  RH  065%=      5-min Rain = 0
KPD2 140708Z 12010G18KT 23/16 A3018 RMK A01 T02310162  RH  065%=      5-min Rain = 0
KPD2 140709Z 13006KT 23/16 A3017 RMK A01 T02300160  RH  065%=      5-min Rain = 0
KPD2 140710Z 06003G9KT 23/16 A3018 RMK A01 T02300159  RH  064%=      5-min Rain = 0
KPD2 140711Z 08006KT 23/16 A3018 RMK A01 T02290157  RH  064%=      5-min Rain = 0
KPD2 140712Z 06009G14KT 23/16 A3018 RMK A01 T02280155  RH  063%=      5-min Rain = 0
KPD2 140713Z 09004KT 23/15 A3018 RMK A01 T02280154  RH  063%=      5-min Rain = 0
KPD2 140714Z 10007G12KT 23/15 A3018 RMK A01 T02280153  RH  063%=      5-min Rain = 0
KPD2 140715Z 11007KT 23/15 A3018 RMK A01 T02280153  RH  063%=      5-min Rain = 0
KPD2 140716Z 11007G12KT 23/15 A3018 RMK A01 T02270151  RH  062%=      5-min Rain = 0
KPD2 140717Z 08003G9KT 23/15 A3018 RMK A01 T02270151  RH  062%=      5-min Rain = 0
KPD2 140718Z 15005KT 23/15 A3018 RMK A01 T02270151  RH  062%=      5-min Rain = 0
KPD2 140719Z 10008KT 23/15 A3018 RMK A01 T02260151  RH  062%=      5-min Rain = 0
KPD2 140720Z 09005KT 23/15 A3018 RMK A01 T02260151  RH  063%=      5-min Rain = 0
KPD2 140721Z 13003KT 23/15 A3018 RMK A01 T02250151  RH  063%=      5-min Rain = 0
KPD2 140722Z 06002KT 22/15 A3018 RMK A01 T02240151  RH  063%=      5-min Rain = 0
KPD2 140723Z 12004KT 22/15 A3018 RMK A01 T02240151  RH  063%=      5-min Rain = 0
KPD2 140724Z 07005KT 22/15 A3018 RMK A01 T02240151  RH  063%=      5-min Rain = 0
KPD2 140725Z 12006G13KT 22/15 A3018 RMK A01 T02230150  RH  063%=      5-min Rain = 0
KPD2 140726Z 13005KT 22/15 A3018 RMK A01 T02230150  RH  063%=      5-min Rain = 0
KPD2 140727Z 12009G15KT 22/15 A3018 RMK A01 T02230150  RH  063%=      5-min Rain = 0
KPD2 140728Z 12007G12KT 22/15 A3018 RMK A01 T02220149  RH  063%=      5-min Rain = 0
KPD2 140729Z 13005KT 22/15 A3018 RMK A01 T02220149  RH  063%=      5-min Rain = 0
KPD2 140730Z 12007G12KT 22/15 A3018 RMK A01 T02210148  RH  063%=      5-min Rain = 0
KPD2 140731Z 10006G13KT 22/15 A3018 RMK A01 T02210148  RH  063%=      5-min Rain = 0
KPD2 140732Z 12004G10KT 22/15 A3018 RMK A01 T02210147  RH  063%=      5-min Rain = 0
KPD2 140733Z 10008G19KT 22/15 A3018 RMK A01 T02200146  RH  063%=      5-min Rain = 0
KPD2 140734Z 12005G10KT 22/15 A3018 RMK A01 T02200146  RH  063%=      5-min Rain = 0
KPD2 140735Z 11005G12KT 22/15 A3018 RMK A01 T02200146  RH  063%=      5-min Rain = 0
KPD2 140736Z 11003KT 22/15 A3018 RMK A01 T02190146  RH  063%=      5-min Rain = 0
KPD2 140737Z 12007G13KT 22/15 A3018 RMK A01 T02190146  RH  063%=      5-min Rain = 0
KPD2 140738Z 17004KT 22/15 A3018 RMK A01 T02180146  RH  063%=      5-min Rain = 0
KPD2 140739Z 11004G10KT 22/15 A3018 RMK A01 T02180146  RH  064%=      5-min Rain = 0
KPD2 140740Z 13002KT 22/15 A3018 RMK A01 T02180145  RH  063%=      5-min Rain = 0
KPD2 140741Z 17004G10KT 22/15 A3018 RMK A01 T02180145  RH  063%=      5-min Rain = 0
KPD2 140742Z 11007G14KT 22/15 A3018 RMK A01 T02170145  RH  063%=      5-min Rain = 0
KPD2 140743Z 14008G13KT 22/14 A3018 RMK A01 T02170144  RH  063%=      5-min Rain = 0
KPD2 140744Z 14004KT 22/14 A3018 RMK A01 T02170144  RH  063%=      5-min Rain = 0
KPD2 140745Z 15007G12KT 22/14 A3017 RMK A01 T02170143  RH  063%=      5-min Rain = 0
KPD2 140746Z 13005KT 22/14 A3018 RMK A01 T02160143  RH  063%=      5-min Rain = 0
KPD2 140747Z 15006KT 22/14 A3018 RMK A01 T02160143  RH  063%=      5-min Rain = 0
KPD2 140748Z 13006KT 22/14 A3018 RMK A01 T02160142  RH  063%=      5-min Rain = 0
KPD2 140749Z 08002G7KT 22/14 A3018 RMK A01 T02160142  RH  063%=      5-min Rain = 0
KPD2 140750Z 16006KT 22/14 A3018 RMK A01 T02160141  RH  062%=      5-min Rain = 0
KPD2 140751Z 15006G11KT 22/14 A3018 RMK A01 T02160141  RH  062%=      5-min Rain = 0
KPD2 140752Z 13003KT 22/14 A3018 RMK A01 T02160141  RH  062%=      5-min Rain = 0
KPD2 140753Z 17005KT 22/14 A3018 RMK A01 T02160141  RH  062%=      5-min Rain = 0
KPD2 140754Z 15009KT 22/14 A3018 RMK A01 T02160140  RH  062%=      5-min Rain = 0
KPD2 140755Z 16010KT 22/14 A3018 RMK A01 T02160140  RH  062%=      5-min Rain = 0
KPD2 140756Z 14008G13KT 22/14 A3018 RMK A01 T02160140  RH  062%=      5-min Rain = 0
KPD2 140757Z 14010KT 22/14 A3018 RMK A01 T02150138  RH  062%=      5-min Rain = 0
KPD2 140758Z 15011KT 22/14 A3018 RMK A01 T02150138  RH  062%=      5-min Rain = 0
KPD2 140759Z 14012G18KT 21/14 A3019 RMK A01 T02140138  RH  062%=      5-min Rain = 0
KPD2 140800Z 13011G16KT 22/14 A3019 RMK A01 T02150137  RH  061%=      5-min Rain = 0
KPD2 140801Z 13007KT 21/14 A3019 RMK A01 T02140137  RH  061%=      5-min Rain = 0
KPD2 140802Z 16006KT 21/14 A3019 RMK A01 T02140137  RH  062%=      5-min Rain = 0
KPD2 140803Z 13006G13KT 21/14 A3019 RMK A01 T02140138  RH  062%=      5-min Rain = 0
KPD2 140804Z 14005KT 21/14 A3019 RMK A01 T02140137  RH  062%=      5-min Rain = 0
KPD2 140805Z 16006KT 21/14 A3019 RMK A01 T02130137  RH  062%=      5-min Rain = 0
KPD2 140806Z 15007KT 21/14 A3019 RMK A01 T02140137  RH  062%=      5-min Rain = 0
KPD2 140807Z 13006KT 21/14 A3019 RMK A01 T02130136  RH  061%=      5-min Rain = 0
KPD2 140808Z 14007KT 21/14 A3019 RMK A01 T02130135  RH  061%=      5-min Rain = 0
KPD2 140809Z 15007KT 21/14 A3019 RMK A01 T02140136  RH  061%=      5-min Rain = 0
KPD2 140810Z 15006KT 21/14 A3019 RMK A01 T02130135  RH  061%=      5-min Rain = 0
KPD2 140811Z 13007KT 21/14 A3019 RMK A01 T02140135  RH  061%=      5-min Rain = 0
KPD2 140812Z 14006KT 21/13 A3019 RMK A01 T02130134  RH  061%=      5-min Rain = 0
KPD2 140813Z 14003KT 21/14 A3019 RMK A01 T02130135  RH  061%=      5-min Rain = 0
KPD2 140814Z 10006G14KT 21/14 A3019 RMK A01 T02130135  RH  061%=      5-min Rain = 0
KPD2 140815Z 10007KT 21/13 A3019 RMK A01 T02120134  RH  061%=      5-min Rain = 0
KPD2 140816Z 13003KT 21/13 A3019 RMK A01 T02120134  RH  061%=      5-min Rain = 0
KPD2 140817Z 11005KT 21/13 A3019 RMK A01 T02120134  RH  061%=      5-min Rain = 0
KPD2 140818Z 14005KT 21/13 A3019 RMK A01 T02120133  RH  061%=      5-min Rain = 0
KPD2 140819Z 13006KT 21/13 A3019 RMK A01 T02120133  RH  061%=      5-min Rain = 0
KPD2 140820Z 12008G13KT 21/13 A3018 RMK A01 T02120133  RH  061%=      5-min Rain = 0
KPD2 140821Z 12005KT 21/13 A3018 RMK A01 T02120133  RH  060%=      5-min Rain = 0
KPD2 140822Z 13004KT 21/13 A3018 RMK A01 T02120132  RH  060%=      5-min Rain = 0
KPD2 140823Z 11007KT 21/13 A3018 RMK A01 T02120132  RH  060%=      5-min Rain = 0
KPD2 140824Z 12007KT 21/13 A3018 RMK A01 T02120132  RH  060%=      5-min Rain = 0
KPD2 140825Z 10005KT 21/13 A3018 RMK A01 T02120132  RH  060%=      5-min Rain = 0
KPD2 140826Z 11004KT 21/13 A3019 RMK A01 T02120133  RH  060%=      5-min Rain = 0
KPD2 140827Z 15004KT 21/13 A3018 RMK A01 T02120132  RH  060%=      5-min Rain = 0
KPD2 140828Z 12004KT 21/13 A3018 RMK A01 T02120132  RH  060%=      5-min Rain = 0
KPD2 140829Z 14003KT 21/13 A3019 RMK A01 T02120132  RH  060%=      5-min Rain = 0
KPD2 140830Z 09004KT 21/13 A3019 RMK A01 T02120132  RH  060%=      5-min Rain = 0
KPD2 140831Z 12002KT 21/13 A3019 RMK A01 T02120133  RH  061%=      5-min Rain = 0
KPD2 140832Z 13001KT 21/13 A3019 RMK A01 T02110132  RH  061%=      5-min Rain = 0
KPD2 140833Z 12004G9KT 21/13 A3018 RMK A01 T02110132  RH  061%=      5-min Rain = 0
KPD2 140834Z 16004KT 21/13 A3018 RMK A01 T02110132  RH  061%=      5-min Rain = 0
KPD2 140835Z 14005KT 21/13 A3018 RMK A01 T02110132  RH  060%=      5-min Rain = 0
KPD2 140836Z 13006KT 21/13 A3018 RMK A01 T02110132  RH  060%=      5-min Rain = 0
KPD2 140837Z 14008G14KT 21/13 A3018 RMK A01 T02110132  RH  060%=      5-min Rain = 0
KPD2 140838Z 14008G13KT 21/13 A3018 RMK A01 T02110131  RH  060%=      5-min Rain = 0
KPD2 140839Z 14005G10KT 21/13 A3018 RMK A01 T02120131  RH  060%=      5-min Rain = 0
KPD2 140840Z 13008KT 21/13 A3018 RMK A01 T02120131  RH  060%=      5-min Rain = 0
KPD2 140841Z 13009KT 21/13 A3018 RMK A01 T02120131  RH  060%=      5-min Rain = 0
KPD2 140842Z 14009KT 21/13 A3018 RMK A01 T02120131  RH  060%=      5-min Rain = 0
KPD2 140843Z 14008KT 21/13 A3018 RMK A01 T02120131  RH  060%=      5-min Rain = 0
KPD2 140844Z 14010KT 21/13 A3018 RMK A01 T02130131  RH  060%=      5-min Rain = 0
KPD2 140845Z 14007G12KT 21/13 A3018 RMK A01 T02120130  RH  059%=      5-min Rain = 0
KPD2 140846Z 13008KT 21/13 A3018 RMK A01 T02130130  RH  059%=      5-min Rain = 0
KPD2 140847Z 13011G17KT 21/13 A3018 RMK A01 T02130130  RH  059%=      5-min Rain = 0
KPD2 140848Z 13009KT 21/13 A3018 RMK A01 T02130130  RH  059%=      5-min Rain = 0
KPD2 140849Z 14009G15KT 21/13 A3018 RMK A01 T02130130  RH  059%=      5-min Rain = 0
KPD2 140850Z 12010G15KT 21/13 A3018 RMK A01 T02140130  RH  058%=      5-min Rain = 0
KPD2 140851Z 13012G19KT 22/13 A3018 RMK A01 T02150129  RH  058%=      5-min Rain = 0
KPD2 140852Z 12010KT 22/13 A3018 RMK A01 T02150129  RH  058%=      5-min Rain = 0
KPD2 140853Z 13007KT 22/13 A3018 RMK A01 T02150129  RH  058%=      5-min Rain = 0
KPD2 140854Z 14006KT 22/13 A3018 RMK A01 T02150130  RH  058%=      5-min Rain = 0
KPD2 140855Z 13005G10KT 22/13 A3018 RMK A01 T02150129  RH  058%=      5-min Rain = 0
KPD2 140856Z 16005KT 22/13 A3018 RMK A01 T02150129  RH  058%=      5-min Rain = 0
KPD2 140857Z 16007KT 22/13 A3018 RMK A01 T02150130  RH  058%=      5-min Rain = 0
KPD2 140858Z 12006KT 22/13 A3018 RMK A01 T02150129  RH  058%=      5-min Rain = 0
KPD2 140859Z 14006KT 22/13 A3019 RMK A01 T02150128  RH  058%=      5-min Rain = 0
KPD2 140900Z 14003KT 22/13 A3019 RMK A01 T02150128  RH  058%=      5-min Rain = 0
KPD2 140901Z 15003KT 22/13 A3019 RMK A01 T02160128  RH  057%=      5-min Rain = 0
KPD2 140902Z 14005KT 22/13 A3019 RMK A01 T02160128  RH  057%=      5-min Rain = 0
KPD2 140903Z 16004KT 22/13 A3019 RMK A01 T02160128  RH  057%=      5-min Rain = 0
KPD2 140904Z 13002KT 22/13 A3019 RMK A01 T02160128  RH  057%=      5-min Rain = 0
KPD2 140905Z 17001KT 22/13 A3019 RMK A01 T02160128  RH  057%=      5-min Rain = 0
KPD2 140906Z 06002KT 22/13 A302 RMK A01 T02160128  RH  057%=      5-min Rain = 0
KPD2 140907Z 03000KT 22/13 A302 RMK A01 T02160128  RH  057%=      5-min Rain = 0
KPD2 140908Z 31001KT 22/13 A302 RMK A01 T02160128  RH  057%=      5-min Rain = 0
KPD2 140909Z 05003KT 22/13 A302 RMK A01 T02160129  RH  057%=      5-min Rain = 0
KPD2 140910Z 28004KT 22/13 A302 RMK A01 T02160129  RH  058%=      5-min Rain = 0
KPD2 140911Z 23003KT 22/13 A302 RMK A01 T02160130  RH  058%=      5-min Rain = 0
KPD2 140912Z 19002KT 22/13 A3021 RMK A01 T02160130  RH  058%=      5-min Rain = 0
KPD2 140913Z 17002KT 22/13 A3021 RMK A01 T02160129  RH  058%=      5-min Rain = 0
KPD2 140914Z 23004KT 22/13 A3021 RMK A01 T02160130  RH  058%=      5-min Rain = 0
KPD2 140915Z 25002KT 22/13 A3021 RMK A01 T02160130  RH  058%=      5-min Rain = 0
KPD2 140916Z 22005KT 22/13 A3021 RMK A01 T02150130  RH  058%=      5-min Rain = 0
KPD2 140917Z 24004KT 22/13 A3021 RMK A01 T02150130  RH  058%=      5-min Rain = 0
KPD2 140918Z 24003KT 22/13 A3021 RMK A01 T02150130  RH  058%=      5-min Rain = 0
KPD2 140919Z 23003KT 22/13 A3021 RMK A01 T02150131  RH  059%=      5-min Rain = 0
KPD2 140920Z 29002KT 21/13 A3021 RMK A01 T02140131  RH  059%=      5-min Rain = 0
KPD2 140921Z 26004KT 21/13 A3021 RMK A01 T02140131  RH  059%=      5-min Rain = 0
KPD2 140922Z 26004KT 21/13 A302 RMK A01 T02130131  RH  059%=      5-min Rain = 0
KPD2 140923Z 25004KT 21/13 A3021 RMK A01 T02130131  RH  060%=      5-min Rain = 0
KPD2 140924Z 24003KT 21/13 A3021 RMK A01 T02120131  RH  060%=      5-min Rain = 0
KPD2 140925Z 30002KT 21/13 A3021 RMK A01 T02120132  RH  060%=      5-min Rain = 0
KPD2 140926Z 24002KT 21/13 A3021 RMK A01 T02110131  RH  060%=      5-min Rain = 0
KPD2 140927Z 20003KT 21/13 A3021 RMK A01 T02110131  RH  060%=      5-min Rain = 0
KPD2 140928Z 21005KT 21/13 A3021 RMK A01 T02110131  RH  060%=      5-min Rain = 0
KPD2 140929Z 22003KT 21/13 A3021 RMK A01 T02110130  RH  060%=      5-min Rain = 0
KPD2 140930Z 21003KT 21/13 A3021 RMK A01 T02110131  RH  060%=      5-min Rain = 0
KPD2 140931Z 22002KT 21/13 A3021 RMK A01 T02110131  RH  060%=      5-min Rain = 0
KPD2 140932Z 21002KT 21/13 A3021 RMK A01 T02120131  RH  060%=      5-min Rain = 0
KPD2 140933Z 07000KT 21/13 A3021 RMK A01 T02120131  RH  060%=      5-min Rain = 0
KPD2 140934Z 13000KT 21/13 A3021 RMK A01 T02120131  RH  060%=      5-min Rain = 0
KPD2 140935Z 17002KT 21/13 A3021 RMK A01 T02120131  RH  060%=      5-min Rain = 0
KPD2 140936Z 20004KT 21/13 A3021 RMK A01 T02120131  RH  060%=      5-min Rain = 0
KPD2 140937Z 16005KT 21/13 A302 RMK A01 T02130131  RH  059%=      5-min Rain = 0
KPD2 140938Z 11004KT 21/13 A3021 RMK A01 T02130130  RH  059%=      5-min Rain = 0
KPD2 140939Z 11002KT 21/13 A3021 RMK A01 T02140131  RH  059%=      5-min Rain = 0
KPD2 140940Z 17003KT 21/13 A302 RMK A01 T02140131  RH  059%=      5-min Rain = 0
KPD2 140941Z 19004KT 21/13 A302 RMK A01 T02140131  RH  059%=      5-min Rain = 0
KPD2 140942Z 17005KT 22/13 A302 RMK A01 T02150131  RH  059%=      5-min Rain = 0
KPD2 140943Z 15003KT 22/13 A302 RMK A01 T02150131  RH  059%=      5-min Rain = 0
KPD2 140944Z 19002KT 22/13 A302 RMK A01 T02150131  RH  059%=      5-min Rain = 0
KPD2 140945Z 23002KT 22/13 A302 RMK A01 T02150130  RH  059%=      5-min Rain = 0
KPD2 140946Z 17004KT 22/13 A302 RMK A01 T02150130  RH  058%=      5-min Rain = 0
KPD2 140947Z 09002KT 22/13 A302 RMK A01 T02150130  RH  058%=      5-min Rain = 0
KPD2 140948Z 10002KT 22/13 A302 RMK A01 T02150130  RH  058%=      5-min Rain = 0
KPD2 140949Z 13005KT 22/13 A302 RMK A01 T02150130  RH  058%=      5-min Rain = 0
KPD2 140950Z 12003KT 22/13 A302 RMK A01 T02150130  RH  058%=      5-min Rain = 0
KPD2 140951Z 17002KT 22/13 A302 RMK A01 T02150130  RH  058%=      5-min Rain = 0
KPD2 140952Z 14003KT 22/13 A302 RMK A01 T02150130  RH  058%=      5-min Rain = 0
KPD2 140953Z 13002KT 22/13 A302 RMK A01 T02160130  RH  058%=      5-min Rain = 0
KPD2 140954Z 17002KT 22/13 A302 RMK A01 T02160130  RH  058%=      5-min Rain = 0
KPD2 140955Z 13002KT 22/13 A3021 RMK A01 T02160130  RH  058%=      5-min Rain = 0
KPD2 140956Z 09004KT 22/13 A3021 RMK A01 T02160130  RH  058%=      5-min Rain = 0
KPD2 140957Z 13004KT 22/13 A3021 RMK A01 T02160130  RH  058%=      5-min Rain = 0
KPD2 140958Z 15003KT 22/13 A3021 RMK A01 T02160130  RH  058%=      5-min Rain = 0
KPD2 140959Z 15004KT 22/13 A3021 RMK A01 T02160131  RH  058%=      5-min Rain = 0
KPD2 141000Z 16004KT 22/13 A3021 RMK A01 T02160131  RH  058%=      5-min Rain = 0
KPD2 141001Z 13003KT 22/13 A3021 RMK A01 T02160131  RH  058%=      5-min Rain = 0
KPD2 141002Z 11003KT 22/13 A3021 RMK A01 T02160131  RH  058%=      5-min Rain = 0
KPD2 141003Z 14003KT 22/13 A3021 RMK A01 T02160131  RH  058%=      5-min Rain = 0
KPD2 141004Z 13002KT 22/13 A3021 RMK A01 T02160130  RH  058%=      5-min Rain = 0
KPD2 141005Z 20002KT 22/13 A3021 RMK A01 T02170130  RH  058%=      5-min Rain = 0
KPD2 141006Z 23002KT 22/13 A3021 RMK A01 T02170130  RH  058%=      5-min Rain = 0
KPD2 141007Z 27002KT 22/13 A3021 RMK A01 T02170129  RH  057%=      5-min Rain = 0
KPD2 141008Z 26002KT 22/13 A3021 RMK A01 T02170130  RH  058%=      5-min Rain = 0
KPD2 141009Z 24002KT 22/13 A3022 RMK A01 T02170130  RH  058%=      5-min Rain = 0
KPD2 141010Z 25002KT 22/13 A3022 RMK A01 T02170130  RH  058%=      5-min Rain = 0
KPD2 141011Z 30002KT 22/13 A3022 RMK A01 T02160131  RH  058%=      5-min Rain = 0
KPD2 141012Z 30004KT 22/13 A3022 RMK A01 T02150131  RH  058%=      5-min Rain = 0
KPD2 141013Z 02003KT 22/13 A3022 RMK A01 T02150130  RH  058%=      5-min Rain = 0
KPD2 141014Z 29004KT 22/13 A3022 RMK A01 T02150130  RH  059%=      5-min Rain = 0
KPD2 141015Z 29004KT 22/13 A3022 RMK A01 T02150131  RH  059%=      5-min Rain = 0
KPD2 141016Z 29002KT 22/13 A3022 RMK A01 T02150131  RH  059%=      5-min Rain = 0
KPD2 141017Z 28003KT 21/13 A3022 RMK A01 T02140131  RH  059%=      5-min Rain = 0
KPD2 141018Z 25001KT 21/13 A3022 RMK A01 T02140131  RH  059%=      5-min Rain = 0
KPD2 141019Z 21002KT 21/13 A3022 RMK A01 T02140131  RH  059%=      5-min Rain = 0
KPD2 141020Z 23003KT 21/13 A3022 RMK A01 T02130131  RH  059%=      5-min Rain = 0
KPD2 141021Z 24002KT 21/13 A3022 RMK A01 T02130131  RH  060%=      5-min Rain = 0
KPD2 141022Z 08001KT 21/13 A3023 RMK A01 T02120131  RH  060%=      5-min Rain = 0
KPD2 141023Z 07001KT 21/13 A3023 RMK A01 T02110131  RH  060%=      5-min Rain = 0
KPD2 141024Z 02000KT 21/13 A3023 RMK A01 T02110131  RH  060%=      5-min Rain = 0
KPD2 141025Z 24002KT 21/13 A3023 RMK A01 T02100131  RH  061%=      5-min Rain = 0
KPD2 141026Z 24002KT 21/13 A3023 RMK A01 T02100131  RH  061%=      5-min Rain = 0
KPD2 141027Z 22003KT 21/13 A3023 RMK A01 T02100130  RH  060%=      5-min Rain = 0
KPD2 141028Z 22002KT 21/13 A3023 RMK A01 T02100131  RH  060%=      5-min Rain = 0
KPD2 141029Z 25002KT 21/13 A3022 RMK A01 T02090130  RH  060%=      5-min Rain = 0
KPD2 141030Z 25003KT 21/13 A3022 RMK A01 T02090130  RH  061%=      5-min Rain = 0
KPD2 141031Z 25002KT 21/13 A3022 RMK A01 T02090130  RH  061%=      5-min Rain = 0
KPD2 141032Z 22003KT 21/13 A3022 RMK A01 T02090130  RH  060%=      5-min Rain = 0
KPD2 141033Z 18003KT 21/13 A3022 RMK A01 T02090129  RH  060%=      5-min Rain = 0
KPD2 141034Z 03005KT 21/13 A3022 RMK A01 T02100130  RH  060%=      5-min Rain = 0
KPD2 141035Z 08003KT 21/13 A3022 RMK A01 T02100130  RH  060%=      5-min Rain = 0
KPD2 141036Z 36002KT 21/13 A3022 RMK A01 T02100130  RH  060%=      5-min Rain = 0
KPD2 141037Z 34003KT 21/13 A3022 RMK A01 T02100131  RH  060%=      5-min Rain = 0
KPD2 141038Z 33002KT 21/13 A3022 RMK A01 T02090131  RH  061%=      5-min Rain = 0
KPD2 141039Z 31000KT 21/13 A3022 RMK A01 T02090131  RH  061%=      5-min Rain = 0
KPD2 141040Z 19001KT 21/13 A3022 RMK A01 T02080131  RH  061%=      5-min Rain = 0
KPD2 141041Z 36002KT 21/13 A3023 RMK A01 T02080131  RH  062%=      5-min Rain = 0
KPD2 141042Z 26002KT 21/13 A3023 RMK A01 T02070132  RH  062%=      5-min Rain = 0
KPD2 141043Z 28001KT 21/13 A3023 RMK A01 T02060132  RH  062%=      5-min Rain = 0
KPD2 141044Z 21002KT 21/13 A3023 RMK A01 T02060132  RH  063%=      5-min Rain = 0
KPD2 141045Z 22003KT 21/13 A3023 RMK A01 T02050132  RH  063%=      5-min Rain = 0
KPD2 141046Z 26003KT 21/13 A3023 RMK A01 T02050133  RH  063%=      5-min Rain = 0
KPD2 141047Z 29003KT 20/13 A3023 RMK A01 T02040133  RH  064%=      5-min Rain = 0
KPD2 141048Z 33003KT 20/13 A3023 RMK A01 T02030133  RH  064%=      5-min Rain = 0
KPD2 141049Z 33005KT 20/13 A3023 RMK A01 T02030134  RH  064%=      5-min Rain = 0
KPD2 141050Z 33002KT 20/13 A3023 RMK A01 T02020134  RH  065%=      5-min Rain = 0
KPD2 141051Z 31006KT 20/13 A3023 RMK A01 T02020134  RH  065%=      5-min Rain = 0
KPD2 141052Z 32005KT 20/14 A3024 RMK A01 T02020135  RH  065%=      5-min Rain = 0
KPD2 141053Z 33006KT 20/14 A3024 RMK A01 T02010135  RH  066%=      5-min Rain = 0
KPD2 141054Z 33007KT 20/14 A3024 RMK A01 T02010135  RH  066%=      5-min Rain = 0
KPD2 141055Z 32008KT 20/14 A3024 RMK A01 T02010135  RH  066%=      5-min Rain = 0
KPD2 141056Z 31006KT 20/14 A3024 RMK A01 T02010136  RH  066%=      5-min Rain = 0
KPD2 141057Z 33009KT 20/14 A3024 RMK A01 T02010135  RH  066%=      5-min Rain = 0
KPD2 141058Z 34008G13KT 20/14 A3024 RMK A01 T02010136  RH  066%=      5-min Rain = 0
KPD2 141059Z 34009KT 20/14 A3024 RMK A01 T02000136  RH  066%=      5-min Rain = 0
KPD2 141100Z 32009G15KT 20/14 A3024 RMK A01 T02000135  RH  066%=      5-min Rain = 0
KPD2 141101Z 32005G11KT 20/14 A3024 RMK A01 T02000136  RH  066%=      5-min Rain = 0
KPD2 141102Z 35003KT 20/14 A3024 RMK A01 T02000135  RH  066%=      5-min Rain = 0
KPD2 141103Z 36007G14KT 20/14 A3024 RMK A01 T02000135  RH  066%=      5-min Rain = 0
KPD2 141104Z 35008KT 20/14 A3025 RMK A01 T02000135  RH  066%=      5-min Rain = 0
KPD2 141105Z 33005KT 20/14 A3025 RMK A01 T02000135  RH  066%=      5-min Rain = 0
KPD2 141106Z 36006G14KT 20/14 A3024 RMK A01 T02000135  RH  066%=      5-min Rain = 0
KPD2 141107Z 35005KT 20/14 A3023 RMK A01 T02000135  RH  066%=      5-min Rain = 0
KPD2 141108Z 01005KT 20/13 A3023 RMK A01 T02000134  RH  066%=      5-min Rain = 0
KPD2 141109Z 05005KT 20/13 A3022 RMK A01 T02000134  RH  066%=      5-min Rain = 0
KPD2 141110Z 35004G10KT 20/13 A3022 RMK A01 T02000133  RH  065%=      5-min Rain = 0
KPD2 141111Z 36010KT 20/13 A3023 RMK A01 T02010134  RH  065%=      5-min Rain = 0
KPD2 141112Z 35010G16KT 20/13 A3024 RMK A01 T02010134  RH  065%=      5-min Rain = 0
KPD2 141113Z 35009G16KT 20/13 A3024 RMK A01 T02010134  RH  065%=      5-min Rain = 0
KPD2 141114Z 35008G14KT 20/13 A3024 RMK A01 T02020134  RH  065%=      5-min Rain = 0
KPD2 141115Z 00007G14KT 20/13 A3023 RMK A01 T02010134  RH  065%=      5-min Rain = 0
KPD2 141116Z 35005KT 20/13 A3022 RMK A01 T02020134  RH  065%=      5-min Rain = 0
KPD2 141117Z 05003G9KT 20/13 A3021 RMK A01 T02020132  RH  064%=      5-min Rain = 0
KPD2 141118Z 01007KT 20/13 A3022 RMK A01 T02030132  RH  064%=      5-min Rain = 0
KPD2 141119Z 01009KT 20/13 A3023 RMK A01 T02040132  RH  063%=      5-min Rain = 0
KPD2 141120Z 00009G14KT 20/13 A3024 RMK A01 T02040133  RH  063%=      5-min Rain = 0
KPD2 141121Z 33008KT 20/13 A3023 RMK A01 T02040133  RH  063%=      5-min Rain = 0
KPD2 141122Z 36007G12KT 20/13 A3023 RMK A01 T02040133  RH  064%=      5-min Rain = 0
KPD2 141123Z 36005KT 20/13 A3023 RMK A01 T02040133  RH  064%=      5-min Rain = 0
KPD2 141124Z 00009KT 20/13 A3023 RMK A01 T02040134  RH  064%=      5-min Rain = 0
KPD2 141125Z 00005KT 20/13 A3023 RMK A01 T02030133  RH  064%=      5-min Rain = 0
KPD2 141126Z 35004KT 20/13 A3023 RMK A01 T02020133  RH  064%=      5-min Rain = 0
KPD2 141127Z 01008KT 20/13 A3023 RMK A01 T02020133  RH  065%=      5-min Rain = 0
KPD2 141128Z 01009KT 20/13 A3022 RMK A01 T02010133  RH  065%=      5-min Rain = 0
KPD2 141129Z 01008KT 20/13 A3023 RMK A01 T02020133  RH  065%=      5-min Rain = 0
KPD2 141130Z 01010KT 20/13 A3023 RMK A01 T02010133  RH  065%=      5-min Rain = 0
KPD2 141131Z 00009KT 20/13 A3023 RMK A01 T02010133  RH  065%=      5-min Rain = 0
KPD2 141132Z 01012KT 20/13 A3023 RMK A01 T02020133  RH  065%=      5-min Rain = 0
KPD2 141133Z 00011KT 20/13 A3023 RMK A01 T02020133  RH  064%=      5-min Rain = 0
KPD2 141134Z 01011KT 20/13 A3023 RMK A01 T02020132  RH  064%=      5-min Rain = 0
KPD2 141135Z 01010KT 20/13 A3023 RMK A01 T02030131  RH  063%=      5-min Rain = 0
KPD2 141136Z 02008KT 21/13 A3023 RMK A01 T02050132  RH  063%=      5-min Rain = 0
KPD2 141137Z 04007KT 21/13 A3022 RMK A01 T02060131  RH  062%=      5-min Rain = 0
KPD2 141138Z 03009KT 21/13 A3022 RMK A01 T02070131  RH  062%=      5-min Rain = 0
KPD2 141139Z 03007G13KT 21/13 A3022 RMK A01 T02070131  RH  062%=      5-min Rain = 0
KPD2 141140Z 03008KT 21/13 A3022 RMK A01 T02080130  RH  061%=      5-min Rain = 0
KPD2 141141Z 01004KT 21/13 A3022 RMK A01 T02100131  RH  061%=      5-min Rain = 0
KPD2 141142Z 02008KT 21/13 A3022 RMK A01 T02100130  RH  060%=      5-min Rain = 0
KPD2 141143Z 03004KT 21/13 A3022 RMK A01 T02110129  RH  060%=      5-min Rain = 0
KPD2 141144Z 01006KT 21/13 A3022 RMK A01 T02120129  RH  059%=      5-min Rain = 0
KPD2 141145Z 01005KT 21/13 A3022 RMK A01 T02130129  RH  059%=      5-min Rain = 0
KPD2 141146Z 00006KT 21/13 A3022 RMK A01 T02130129  RH  059%=      5-min Rain = 0
KPD2 141147Z 00006KT 21/13 A3022 RMK A01 T02140129  RH  059%=      5-min Rain = 0
KPD2 141148Z 36005KT 21/13 A3022 RMK A01 T02140130  RH  059%=      5-min Rain = 0
KPD2 141149Z 01005KT 21/13 A3023 RMK A01 T02140130  RH  059%=      5-min Rain = 0
KPD2 141150Z 36006KT 21/13 A3023 RMK A01 T02140130  RH  058%=      5-min Rain = 0
KPD2 141151Z 36008KT 21/13 A3023 RMK A01 T02140130  RH  059%=      5-min Rain = 0
KPD2 141152Z 36009KT 21/13 A3023 RMK A01 T02140131  RH  059%=      5-min Rain = 0
KPD2 141153Z 01007KT 21/13 A3023 RMK A01 T02130131  RH  060%=      5-min Rain = 0
KPD2 141154Z 35008KT 21/13 A3023 RMK A01 T02110132  RH  060%=      5-min Rain = 0
KPD2 141155Z 34007KT 21/13 A3023 RMK A01 T02100132  RH  061%=      5-min Rain = 0
KPD2 141156Z 00006KT 21/13 A3023 RMK A01 T02090132  RH  061%=      5-min Rain = 0
KPD2 141157Z 35004KT 21/13 A3023 RMK A01 T02080132  RH  062%=      5-min Rain = 0
KPD2 141158Z 00005KT 21/13 A3023 RMK A01 T02070133  RH  062%=      5-min Rain = 0
KPD2 141159Z 35007KT 21/13 A3024 RMK A01 T02070133  RH  062%=      5-min Rain = 0
KPD2 141200Z 34005KT 21/13 A3024 RMK A01 T02060133  RH  063%=      5-min Rain = 0
KPD2 141201Z 36006KT 21/13 A3024 RMK A01 T02060133  RH  063%=      5-min Rain = 0
KPD2 141202Z 35005KT 21/13 A3024 RMK A01 T02050134  RH  063%=      5-min Rain = 0
KPD2 141203Z 35006KT 21/13 A3024 RMK A01 T02050133  RH  064%=      5-min Rain = 0
KPD2 141204Z 32004KT 21/13 A3024 RMK A01 T02050134  RH  064%=      5-min Rain = 0
KPD2 141205Z 32005KT 20/13 A3023 RMK A01 T02040134  RH  064%=      5-min Rain = 0
KPD2 141206Z 33005KT 20/13 A3023 RMK A01 T02040134  RH  064%=      5-min Rain = 0
KPD2 141207Z 33005KT 20/13 A3023 RMK A01 T02040134  RH  064%=      5-min Rain = 0
KPD2 141208Z 33006KT 20/13 A3024 RMK A01 T02040134  RH  064%=      5-min Rain = 0
KPD2 141209Z 34006KT 20/13 A3024 RMK A01 T02040134  RH  064%=      5-min Rain = 0
KPD2 141210Z 34005KT 20/13 A3024 RMK A01 T02040134  RH  064%=      5-min Rain = 0
KPD2 141211Z 33003KT 20/13 A3023 RMK A01 T02040133  RH  064%=      5-min Rain = 0
KPD2 141212Z 31002KT 20/13 A3023 RMK A01 T02040133  RH  064%=      5-min Rain = 0
KPD2 141213Z 30002KT 20/13 A3023 RMK A01 T02040134  RH  064%=      5-min Rain = 0
KPD2 141214Z 27001KT 20/13 A3023 RMK A01 T02040133  RH  063%=      5-min Rain = 0
KPD2 141215Z 26003KT 20/13 A3023 RMK A01 T02040133  RH  063%=      5-min Rain = 0
KPD2 141216Z 25001KT 20/13 A3023 RMK A01 T02040133  RH  063%=      5-min Rain = 0
KPD2 141217Z 27002KT 21/13 A3023 RMK A01 T02050133  RH  063%=      5-min Rain = 0
KPD2 141218Z 29002KT 21/13 A3023 RMK A01 T02050133  RH  064%=      5-min Rain = 0
KPD2 141219Z 29001KT 21/13 A3023 RMK A01 T02050133  RH  063%=      5-min Rain = 0
KPD2 141220Z 30002KT 21/13 A3023 RMK A01 T02050133  RH  063%=      5-min Rain = 0
KPD2 141221Z 31002KT 21/13 A3023 RMK A01 T02050133  RH  063%=      5-min Rain = 0
KPD2 141222Z 33004KT 21/13 A3023 RMK A01 T02050134  RH  063%=      5-min Rain = 0
KPD2 141223Z 32003KT 21/13 A3023 RMK A01 T02050134  RH  064%=      5-min Rain = 0
KPD2 141224Z 32003KT 21/13 A3023 RMK A01 T02050134  RH  064%=      5-min Rain = 0
KPD2 141225Z 32003KT 21/13 A3023 RMK A01 T02050134  RH  064%=      5-min Rain = 0
KPD2 141226Z 32005KT 21/13 A3023 RMK A01 T02050134  RH  064%=      5-min Rain = 0
KPD2 141227Z 32004KT 21/13 A3024 RMK A01 T02050134  RH  064%=      5-min Rain = 0
KPD2 141228Z 32004KT 21/13 A3024 RMK A01 T02050134  RH  064%=      5-min Rain = 0
KPD2 141229Z 31005KT 21/13 A3024 RMK A01 T02050134  RH  064%=      5-min Rain = 0
KPD2 141230Z 34006KT 21/13 A3024 RMK A01 T02060134  RH  063%=      5-min Rain = 0
KPD2 141231Z 34005KT 21/13 A3024 RMK A01 T02060133  RH  063%=      5-min Rain = 0
KPD2 141232Z 34005KT 21/13 A3024 RMK A01 T02070134  RH  063%=      5-min Rain = 0
KPD2 141233Z 33004KT 21/13 A3024 RMK A01 T02070134  RH  063%=      5-min Rain = 0
KPD2 141234Z 34005KT 21/13 A3024 RMK A01 T02070133  RH  063%=      5-min Rain = 0
KPD2 141235Z 35004KT 21/13 A3024 RMK A01 T02080133  RH  062%=      5-min Rain = 0
KPD2 141236Z 35004KT 21/13 A3024 RMK A01 T02090133  RH  062%=      5-min Rain = 0
KPD2 141237Z 34004KT 21/13 A3024 RMK A01 T02090133  RH  062%=      5-min Rain = 0
KPD2 141238Z 34003KT 21/13 A3024 RMK A01 T02100133  RH  062%=      5-min Rain = 0
KPD2 141239Z 30002KT 21/13 A3024 RMK A01 T02100134  RH  062%=      5-min Rain = 0
KPD2 141240Z 26002KT 21/13 A3024 RMK A01 T02100134  RH  062%=      5-min Rain = 0
KPD2 141241Z 28003KT 21/14 A3024 RMK A01 T02100135  RH  062%=      5-min Rain = 0
KPD2 141242Z 30002KT 21/14 A3024 RMK A01 T02100135  RH  062%=      5-min Rain = 0
KPD2 141243Z 28002KT 21/14 A3024 RMK A01 T02090135  RH  063%=      5-min Rain = 0
KPD2 141244Z 28001KT 21/14 A3024 RMK A01 T02080135  RH  063%=      5-min Rain = 0
KPD2 141245Z 27002KT 21/14 A3024 RMK A01 T02080136  RH  063%=      5-min Rain = 0
KPD2 141246Z 28002KT 21/14 A3024 RMK A01 T02080137  RH  064%=      5-min Rain = 0
KPD2 141247Z 27000KT 21/14 A3024 RMK A01 T02070137  RH  064%=      5-min Rain = 0
KPD2 141248Z 00000KT 21/14 A3024 RMK A01 T02070137  RH  064%=      5-min Rain = 0
KPD2 141249Z 27000KT 21/14 A3024 RMK A01 T02070137  RH  064%=      5-min Rain = 0
KPD2 141250Z 22001KT 21/14 A3024 RMK A01 T02070137  RH  064%=      5-min Rain = 0
KPD2 141251Z 21001KT 21/14 A3024 RMK A01 T02060136  RH  064%=      5-min Rain = 0
KPD2 141252Z 22002KT 21/14 A3024 RMK A01 T02060137  RH  064%=      5-min Rain = 0
KPD2 141253Z 23003KT 21/14 A3024 RMK A01 T02060137  RH  064%=      5-min Rain = 0
KPD2 141254Z 25003KT 21/14 A3024 RMK A01 T02060136  RH  064%=      5-min Rain = 0
KPD2 141255Z 26002KT 21/14 A3024 RMK A01 T02050137  RH  065%=      5-min Rain = 0
KPD2 141256Z 24002KT 21/14 A3024 RMK A01 T02060138  RH  065%=      5-min Rain = 0
KPD2 141257Z 24002KT 21/14 A3024 RMK A01 T02050137  RH  065%=      5-min Rain = 0
KPD2 141258Z 26001KT 21/14 A3024 RMK A01 T02050137  RH  065%=      5-min Rain = 0
KPD2 141259Z 26002KT 21/14 A3024 RMK A01 T02050138  RH  065%=      5-min Rain = 0
KPD2 141300Z 24001KT 21/14 A3024 RMK A01 T02050137  RH  065%=      5-min Rain = 0
KPD2 141301Z 00000KT 20/14 A3024 RMK A01 T02040137  RH  065%=      5-min Rain = 0
KPD2 141302Z 24000KT 20/14 A3024 RMK A01 T02040138  RH  066%=      5-min Rain = 0
KPD2 141303Z 27000KT 20/14 A3024 RMK A01 T02040138  RH  066%=      5-min Rain = 0
KPD2 141304Z 00000KT 20/14 A3024 RMK A01 T02040138  RH  066%=      5-min Rain = 0
KPD2 141305Z 00000KT 20/14 A3024 RMK A01 T02040137  RH  065%=      5-min Rain = 0
KPD2 141306Z 00000KT 20/14 A3024 RMK A01 T02040138  RH  066%=      5-min Rain = 0
KPD2 141307Z 27000KT 20/14 A3024 RMK A01 T02040138  RH  066%=      5-min Rain = 0
KPD2 141308Z 27000KT 20/14 A3024 RMK A01 T02040137  RH  065%=      5-min Rain = 0
KPD2 141309Z 00000KT 20/14 A3024 RMK A01 T02040138  RH  066%=      5-min Rain = 0
KPD2 141310Z 27000KT 20/14 A3024 RMK A01 T02040139  RH  066%=      5-min Rain = 0
KPD2 141311Z 01001KT 20/14 A3024 RMK A01 T02040139  RH  066%=      5-min Rain = 0
KPD2 141312Z 01002KT 20/14 A3024 RMK A01 T02040140  RH  067%=      5-min Rain = 0
KPD2 141313Z 01003KT 20/14 A3024 RMK A01 T02040140  RH  067%=      5-min Rain = 0
KPD2 141314Z 00003KT 20/14 A3024 RMK A01 T02040142  RH  068%=      5-min Rain = 0
KPD2 141315Z 01002KT 20/14 A3024 RMK A01 T02030141  RH  068%=      5-min Rain = 0
KPD2 141316Z 02002KT 20/14 A3024 RMK A01 T02030140  RH  067%=      5-min Rain = 0
KPD2 141317Z 03001KT 20/14 A3024 RMK A01 T02040139  RH  066%=      5-min Rain = 0
KPD2 141318Z 00002KT 20/14 A3024 RMK A01 T02040140  RH  067%=      5-min Rain = 0
KPD2 141319Z 35001KT 20/14 A3024 RMK A01 T02040139  RH  066%=      5-min Rain = 0
KPD2 141320Z 04002KT 20/14 A3024 RMK A01 T02040137  RH  065%=      5-min Rain = 0
KPD2 141321Z 06002KT 21/14 A3024 RMK A01 T02050138  RH  065%=      5-min Rain = 0
KPD2 141322Z 09001KT 21/14 A3024 RMK A01 T02060138  RH  065%=      5-min Rain = 0
KPD2 141323Z 07001KT 21/14 A3024 RMK A01 T02060137  RH  065%=      5-min Rain = 0
KPD2 141324Z 01001KT 21/13 A3024 RMK A01 T02070134  RH  063%=      5-min Rain = 0
KPD2 141325Z 03001KT 21/13 A3024 RMK A01 T02090134  RH  062%=      5-min Rain = 0
KPD2 141326Z 01001KT 21/13 A3024 RMK A01 T02100133  RH  061%=      5-min Rain = 0
KPD2 141327Z 17001KT 21/14 A3024 RMK A01 T02120135  RH  061%=      5-min Rain = 0
KPD2 141328Z 18003KT 21/14 A3024 RMK A01 T02120137  RH  062%=      5-min Rain = 0
KPD2 141329Z 19001KT 21/14 A3024 RMK A01 T02120138  RH  062%=      5-min Rain = 0
KPD2 141330Z 19002KT 21/14 A3024 RMK A01 T02120138  RH  063%=      5-min Rain = 0
KPD2 141331Z 20002KT 21/14 A3024 RMK A01 T02120139  RH  063%=      5-min Rain = 0
KPD2 141332Z 19003KT 21/14 A3024 RMK A01 T02120139  RH  063%=      5-min Rain = 0
KPD2 141333Z 19002KT 21/14 A3023 RMK A01 T02110139  RH  063%=      5-min Rain = 0
KPD2 141334Z 18002KT 21/14 A3023 RMK A01 T02110140  RH  064%=      5-min Rain = 0
KPD2 141335Z 17002KT 21/14 A3024 RMK A01 T02100139  RH  064%=      5-min Rain = 0
KPD2 141336Z 13002KT 21/14 A3024 RMK A01 T02090140  RH  064%=      5-min Rain = 0
KPD2 141337Z 11002KT 21/14 A3024 RMK A01 T02090141  RH  065%=      5-min Rain = 0
KPD2 141338Z 10003KT 21/14 A3024 RMK A01 T02090141  RH  065%=      5-min Rain = 0
KPD2 141339Z 10003KT 21/14 A3024 RMK A01 T02090140  RH  065%=      5-min Rain = 0
KPD2 141340Z 11004KT 21/14 A3024 RMK A01 T02090140  RH  065%=      5-min Rain = 0
KPD2 141341Z 10004KT 21/14 A3024 RMK A01 T02090138  RH  064%=      5-min Rain = 0
KPD2 141342Z 09003KT 21/14 A3024 RMK A01 T02080138  RH  064%=      5-min Rain = 0
KPD2 141343Z 10001KT 21/14 A3024 RMK A01 T02080137  RH  064%=      5-min Rain = 0
KPD2 141344Z 10000KT 21/14 A3024 RMK A01 T02080136  RH  063%=      5-min Rain = 0
KPD2 141345Z 08001KT 21/14 A3024 RMK A01 T02090138  RH  064%=      5-min Rain = 0
KPD2 141346Z 09001KT 21/14 A3024 RMK A01 T02090138  RH  064%=      5-min Rain = 0
KPD2 141347Z 16002KT 21/14 A3024 RMK A01 T02090135  RH  063%=      5-min Rain = 0
KPD2 141348Z 22002KT 21/13 A3023 RMK A01 T02100133  RH  061%=      5-min Rain = 0
KPD2 141349Z 14002KT 21/13 A3023 RMK A01 T02120133  RH  060%=      5-min Rain = 0
KPD2 141350Z 13002KT 21/13 A3023 RMK A01 T02140134  RH  061%=      5-min Rain = 0
KPD2 141351Z 13003KT 21/14 A3023 RMK A01 T02140135  RH  061%=      5-min Rain = 0
KPD2 141352Z 12006KT 21/14 A3023 RMK A01 T02140135  RH  061%=      5-min Rain = 0
KPD2 141353Z 12007KT 21/14 A3022 RMK A01 T02140136  RH  061%=      5-min Rain = 0
KPD2 141354Z 11008KT 22/14 A3022 RMK A01 T02150137  RH  061%=      5-min Rain = 0
KPD2 141355Z 12007KT 22/14 A3022 RMK A01 T02150137  RH  061%=      5-min Rain = 0
KPD2 141356Z 12006KT 22/14 A3021 RMK A01 T02150138  RH  062%=      5-min Rain = 0
KPD2 141357Z 12007KT 22/14 A3021 RMK A01 T02150138  RH  062%=      5-min Rain = 0
KPD2 141358Z 12007KT 22/14 A3021 RMK A01 T02150138  RH  062%=      5-min Rain = 0
KPD2 141359Z 12008KT 21/14 A302 RMK A01 T02140138  RH  062%=      5-min Rain = 0
KPD2 141400Z 13009KT 21/14 A302 RMK A01 T02140137  RH  061%=      5-min Rain = 0
KPD2 141401Z 14008KT 21/14 A302 RMK A01 T02140136  RH  061%=      5-min Rain = 0
KPD2 141402Z 15006KT 21/14 A3021 RMK A01 T02140135  RH  061%=      5-min Rain = 0
KPD2 141403Z 16004KT 21/14 A3022 RMK A01 T02140135  RH  061%=      5-min Rain = 0
KPD2 141404Z 25003KT 21/14 A3023 RMK A01 T02140137  RH  062%=      5-min Rain = 0
KPD2 141405Z 27004KT 21/14 A3024 RMK A01 T02140141  RH  063%=      5-min Rain = 0
KPD2 141406Z 26002KT 21/14 A3024 RMK A01 T02130142  RH  064%=      5-min Rain = 0
KPD2 141407Z 19001KT 21/14 A3024 RMK A01 T02110140  RH  064%=      5-min Rain = 0
KPD2 141408Z 14002KT 21/14 A3024 RMK A01 T02110139  RH  063%=      5-min Rain = 0
KPD2 141409Z 14002KT 21/14 A3024 RMK A01 T02110141  RH  064%=      5-min Rain = 0
KPD2 141410Z 12002KT 21/14 A3024 RMK A01 T02110139  RH  063%=      5-min Rain = 0
KPD2 141411Z 12001KT 21/14 A3024 RMK A01 T02110138  RH  063%=      5-min Rain = 0
KPD2 141412Z 06001KT 21/14 A3023 RMK A01 T02120137  RH  062%=      5-min Rain = 0
KPD2 141413Z 03002KT 21/14 A3023 RMK A01 T02120138  RH  063%=      5-min Rain = 0
KPD2 141414Z 24003KT 21/14 A3023 RMK A01 T02130137  RH  062%=      5-min Rain = 0
KPD2 141415Z 16002KT 21/14 A3023 RMK A01 T02140136  RH  061%=      5-min Rain = 0
KPD2 141416Z 12002KT 22/14 A3022 RMK A01 T02150135  RH  061%=      5-min Rain = 0
KPD2 141417Z 09002KT 22/14 A3022 RMK A01 T02150136  RH  061%=      5-min Rain = 0
KPD2 141418Z 11003KT 22/14 A3022 RMK A01 T02160136  RH  060%=      5-min Rain = 0
KPD2 141419Z 08004KT 22/14 A3022 RMK A01 T02170137  RH  060%=      5-min Rain = 0
KPD2 141420Z 11002KT 22/14 A3022 RMK A01 T02170135  RH  060%=      5-min Rain = 0
KPD2 141421Z 17003KT 22/13 A3022 RMK A01 T02180134  RH  059%=      5-min Rain = 0
KPD2 141422Z 14003KT 22/13 A3022 RMK A01 T02190132  RH  058%=      5-min Rain = 0
KPD2 141423Z 14002KT 22/13 A3022 RMK A01 T02200132  RH  058%=      5-min Rain = 0
KPD2 141424Z 15001KT 22/13 A3023 RMK A01 T02210133  RH  058%=      5-min Rain = 0
KPD2 141425Z 22000KT 22/13 A3023 RMK A01 T02210134  RH  058%=      5-min Rain = 0
KPD2 141426Z 24002KT 22/14 A3023 RMK A01 T02210136  RH  059%=      5-min Rain = 0
KPD2 141427Z 28003KT 22/14 A3023 RMK A01 T02210135  RH  058%=      5-min Rain = 0
KPD2 141428Z 28003KT 22/14 A3023 RMK A01 T02210135  RH  058%=      5-min Rain = 0
KPD2 141429Z 26002KT 22/14 A3023 RMK A01 T02210135  RH  058%=      5-min Rain = 0
KPD2 141430Z 25002KT 22/14 A3023 RMK A01 T02210135  RH  058%=      5-min Rain = 0
KPD2 141431Z 24002KT 22/14 A3023 RMK A01 T02210135  RH  058%=      5-min Rain = 0
KPD2 141432Z 29001KT 22/14 A3023 RMK A01 T02220135  RH  058%=      5-min Rain = 0
KPD2 141433Z 30003KT 22/14 A3023 RMK A01 T02220135  RH  058%=      5-min Rain = 0
KPD2 141434Z 31002KT 22/14 A3023 RMK A01 T02220136  RH  058%=      5-min Rain = 0
KPD2 141435Z 28003KT 22/14 A3023 RMK A01 T02230137  RH  058%=      5-min Rain = 0
KPD2 141436Z 28002KT 22/14 A3023 RMK A01 T02220136  RH  058%=      5-min Rain = 0
KPD2 141437Z 28002KT 22/14 A3022 RMK A01 T02230135  RH  058%=      5-min Rain = 0
KPD2 141438Z 28000KT 22/14 A3022 RMK A01 T02230136  RH  058%=      5-min Rain = 0
KPD2 141439Z 20002KT 22/14 A3022 RMK A01 T02230135  RH  057%=      5-min Rain = 0
KPD2 141440Z 21002KT 22/14 A3022 RMK A01 T02240135  RH  057%=      5-min Rain = 0
KPD2 141441Z 21002KT 22/14 A3022 RMK A01 T02240135  RH  057%=      5-min Rain = 0
KPD2 141442Z 19004KT 22/13 A3021 RMK A01 T02240134  RH  057%=      5-min Rain = 0
KPD2 141443Z 18002KT 23/13 A3021 RMK A01 T02250134  RH  056%=      5-min Rain = 0
KPD2 141444Z 21003KT 23/13 A3021 RMK A01 T02250134  RH  056%=      5-min Rain = 0
KPD2 141445Z 15003KT 23/13 A3021 RMK A01 T02250134  RH  056%=      5-min Rain = 0
KPD2 141446Z 15003KT 23/14 A3021 RMK A01 T02250135  RH  057%=      5-min Rain = 0
KPD2 141447Z 17004KT 23/14 A3021 RMK A01 T02260135  RH  056%=      5-min Rain = 0
KPD2 141448Z 15003KT 23/13 A3021 RMK A01 T02260134  RH  056%=      5-min Rain = 0
KPD2 141449Z 14002KT 23/13 A3021 RMK A01 T02260134  RH  056%=      5-min Rain = 0
KPD2 141450Z 13001KT 23/14 A3021 RMK A01 T02260135  RH  056%=      5-min Rain = 0
KPD2 141451Z 21001KT 23/13 A3022 RMK A01 T02260134  RH  056%=      5-min Rain = 0
KPD2 141452Z 20001KT 23/14 A3022 RMK A01 T02270136  RH  056%=      5-min Rain = 0
KPD2 141453Z 21002KT 23/14 A3022 RMK A01 T02260135  RH  056%=      5-min Rain = 0
KPD2 141454Z 23002KT 23/14 A3022 RMK A01 T02270136  RH  056%=      5-min Rain = 0
KPD2 141455Z 23002KT 23/14 A3022 RMK A01 T02270137  RH  057%=      5-min Rain = 0
KPD2 141456Z 25003KT 23/14 A3022 RMK A01 T02270136  RH  056%=      5-min Rain = 0
KPD2 141457Z 29001KT 23/14 A3022 RMK A01 T02270137  RH  057%=      5-min Rain = 0
KPD2 141458Z 31002KT 23/14 A3022 RMK A01 T02270137  RH  057%=      5-min Rain = 0
KPD2 141459Z 31001KT 23/14 A3022 RMK A01 T02270139  RH  058%=      5-min Rain = 0
KPD2 141500Z 33001KT 23/14 A3022 RMK A01 T02270141  RH  058%=      5-min Rain = 0
KPD2 141501Z 35002KT 23/14 A3022 RMK A01 T02270142  RH  059%=      5-min Rain = 0
KPD2 141502Z 01001KT 23/14 A3022 RMK A01 T02280142  RH  058%=      5-min Rain = 0
KPD2 141503Z 00001KT 23/14 A3022 RMK A01 T02280139  RH  057%=      5-min Rain = 0
KPD2 141504Z 00000KT 23/14 A3022 RMK A01 T02280138  RH  057%=      5-min Rain = 0
KPD2 141505Z 00000KT 23/14 A3022 RMK A01 T02280139  RH  057%=      5-min Rain = 0
KPD2 141506Z 00000KT 23/14 A3022 RMK A01 T02280139  RH  057%=      5-min Rain = 0
KPD2 141507Z 00000KT 23/14 A3022 RMK A01 T02290140  RH  057%=      5-min Rain = 0
KPD2 141508Z 10000KT 23/14 A3022 RMK A01 T02300138  RH  056%=      5-min Rain = 0
KPD2 141509Z 12002KT 23/14 A3022 RMK A01 T02300139  RH  056%=      5-min Rain = 0
KPD2 141510Z 12003KT 23/14 A3022 RMK A01 T02300137  RH  056%=      5-min Rain = 0
KPD2 141511Z 15003KT 23/14 A3022 RMK A01 T02310136  RH  055%=      5-min Rain = 0
KPD2 141512Z 10003KT 23/14 A3022 RMK A01 T02310135  RH  055%=      5-min Rain = 0
KPD2 141513Z 09004KT 23/14 A3021 RMK A01 T02320138  RH  055%=      5-min Rain = 0
KPD2 141514Z 12006KT 23/14 A3022 RMK A01 T02330139  RH  055%=      5-min Rain = 0
KPD2 141515Z 10006G11KT 23/14 A3022 RMK A01 T02340139  RH  055%=      5-min Rain = 0
KPD2 141516Z 10010KT 24/14 A3022 RMK A01 T02350137  RH  054%=      5-min Rain = 0
KPD2 141517Z 10009KT 24/14 A3022 RMK A01 T02350135  RH  053%=      5-min Rain = 0
KPD2 141518Z 10008KT 24/13 A3022 RMK A01 T02350134  RH  053%=      5-min Rain = 0
KPD2 141519Z 12006KT 24/14 A3022 RMK A01 T02350135  RH  054%=      5-min Rain = 0
KPD2 141520Z 13005KT 24/14 A3022 RMK A01 T02350136  RH  054%=      5-min Rain = 0
KPD2 141521Z 13005KT 24/14 A3022 RMK A01 T02360136  RH  053%=      5-min Rain = 0
KPD2 141522Z 14006KT 24/14 A3022 RMK A01 T02370136  RH  053%=      5-min Rain = 0
KPD2 141523Z 13005KT 24/13 A3022 RMK A01 T02370134  RH  052%=      5-min Rain = 0
KPD2 141524Z 13005KT 24/13 A3022 RMK A01 T02370134  RH  052%=      5-min Rain = 0
KPD2 141525Z 13004KT 24/14 A3022 RMK A01 T02370136  RH  053%=      5-min Rain = 0
KPD2 141526Z 13003KT 24/14 A3022 RMK A01 T02380137  RH  053%=      5-min Rain = 0
KPD2 141527Z 12006KT 24/14 A3022 RMK A01 T02390137  RH  053%=      5-min Rain = 0
KPD2 141528Z 12005KT 24/14 A3023 RMK A01 T02410137  RH  052%=      5-min Rain = 0
KPD2 141529Z 12004KT 24/13 A3023 RMK A01 T02410134  RH  051%=      5-min Rain = 0
KPD2 141530Z 13004KT 24/14 A3023 RMK A01 T02410135  RH  051%=      5-min Rain = 0
KPD2 141531Z 10003KT 24/13 A3023 RMK A01 T02410134  RH  051%=      5-min Rain = 0
KPD2 141532Z 12001KT 24/13 A3023 RMK A01 T02420133  RH  051%=      5-min Rain = 0
KPD2 141533Z 14002KT 24/13 A3024 RMK A01 T02420134  RH  051%=      5-min Rain = 0
KPD2 141534Z 16001KT 24/13 A3024 RMK A01 T02420134  RH  051%=      5-min Rain = 0
KPD2 141535Z 19002KT 24/13 A3024 RMK A01 T02420133  RH  050%=      5-min Rain = 0
KPD2 141536Z 18003KT 24/13 A3024 RMK A01 T02420131  RH  050%=      5-min Rain = 0
KPD2 141537Z 17004KT 24/13 A3024 RMK A01 T02410132  RH  051%=      5-min Rain = 0
KPD2 141538Z 16003KT 24/13 A3024 RMK A01 T02410133  RH  051%=      5-min Rain = 0
KPD2 141539Z 17002KT 24/13 A3024 RMK A01 T02410131  RH  050%=      5-min Rain = 0
KPD2 141540Z 21000KT 24/13 A3024 RMK A01 T02420132  RH  050%=      5-min Rain = 0
KPD2 141541Z 23000KT 24/13 A3024 RMK A01 T02420132  RH  050%=      5-min Rain = 0
KPD2 141542Z 30002KT 24/13 A3024 RMK A01 T02420132  RH  050%=      5-min Rain = 0
KPD2 141543Z 30002KT 24/13 A3024 RMK A01 T02420134  RH  051%=      5-min Rain = 0
KPD2 141544Z 32001KT 24/13 A3023 RMK A01 T02420133  RH  050%=      5-min Rain = 0
KPD2 141545Z 25000KT 24/13 A3023 RMK A01 T02430132  RH  050%=      5-min Rain = 0
KPD2 141546Z 25002KT 24/14 A3023 RMK A01 T02430135  RH  051%=      5-min Rain = 0
KPD2 141547Z 00000KT 24/14 A3024 RMK A01 T02440136  RH  051%=      5-min Rain = 0
KPD2 141548Z 24000KT 25/13 A3024 RMK A01 T02450134  RH  050%=      5-min Rain = 0
KPD2 141549Z 25001KT 25/13 A3024 RMK A01 T02450134  RH  050%=      5-min Rain = 0
KPD2 141550Z 16000KT 25/13 A3024 RMK A01 T02450133  RH  049%=      5-min Rain = 0
KPD2 141551Z 16000KT 25/13 A3024 RMK A01 T02460134  RH  050%=      5-min Rain = 0
KPD2 141552Z 00000KT 25/14 A3024 RMK A01 T02470135  RH  050%=      5-min Rain = 0
KPD2 141553Z 31003KT 25/14 A3024 RMK A01 T02470137  RH  050%=      5-min Rain = 0
KPD2 141554Z 32003KT 25/14 A3025 RMK A01 T02480135  RH  050%=      5-min Rain = 0
KPD2 141555Z 33004KT 25/14 A3025 RMK A01 T02480138  RH  050%=      5-min Rain = 0
KPD2 141556Z 33005KT 25/14 A3025 RMK A01 T02500136  RH  049%=      5-min Rain = 0
KPD2 141557Z 30005KT 25/14 A3025 RMK A01 T02520138  RH  049%=      5-min Rain = 0
KPD2 141558Z 31006KT 25/14 A3025 RMK A01 T02530137  RH  049%=      5-min Rain = 0
KPD2 141559Z 30006KT 25/14 A3025 RMK A01 T02520136  RH  049%=      5-min Rain = 0
KPD2 141600Z 32006KT 25/14 A3025 RMK A01 T02510135  RH  048%=      5-min Rain = 0
KPD2 141601Z 31004KT 25/13 A3025 RMK A01 T02490134  RH  049%=      5-min Rain = 0
KPD2 141602Z 31005KT 25/14 A3025 RMK A01 T02490135  RH  049%=      5-min Rain = 0
KPD2 141603Z 33004KT 25/14 A3025 RMK A01 T02490135  RH  049%=      5-min Rain = 0
KPD2 141604Z 34005KT 25/14 A3025 RMK A01 T02490137  RH  050%=      5-min Rain = 0
KPD2 141605Z 33004KT 25/14 A3025 RMK A01 T02490135  RH  049%=      5-min Rain = 0
KPD2 141606Z 33003KT 25/14 A3025 RMK A01 T02490136  RH  049%=      5-min Rain = 0
KPD2 141607Z 33004KT 25/14 A3025 RMK A01 T02500135  RH  049%=      5-min Rain = 0
KPD2 141608Z 34004KT 25/14 A3025 RMK A01 T02500137  RH  049%=      5-min Rain = 0
KPD2 141609Z 30003KT 25/14 A3025 RMK A01 T02510137  RH  049%=      5-min Rain = 0
KPD2 141610Z 28002KT 25/14 A3025 RMK A01 T02520140  RH  050%=      5-min Rain = 0
KPD2 141611Z 28003KT 25/14 A3025 RMK A01 T02530140  RH  050%=      5-min Rain = 0
KPD2 141612Z 29003KT 25/14 A3025 RMK A01 T02540139  RH  049%=      5-min Rain = 0
KPD2 141613Z 30004KT 25/14 A3025 RMK A01 T02540140  RH  049%=      5-min Rain = 0
KPD2 141614Z 28004KT 25/14 A3025 RMK A01 T02540138  RH  049%=      5-min Rain = 0
KPD2 141615Z 28004KT 25/14 A3025 RMK A01 T02530140  RH  049%=      5-min Rain = 0
KPD2 141616Z 26003KT 25/14 A3025 RMK A01 T02520139  RH  049%=      5-min Rain = 0
KPD2 141617Z 28004KT 25/14 A3025 RMK A01 T02520139  RH  049%=      5-min Rain = 0
KPD2 141618Z 27003KT 25/14 A3025 RMK A01 T02530139  RH  049%=      5-min Rain = 0
KPD2 141619Z 29003KT 25/14 A3025 RMK A01 T02530139  RH  049%=      5-min Rain = 0
KPD2 141620Z 28003KT 25/14 A3025 RMK A01 T02540139  RH  049%=      5-min Rain = 0
KPD2 141621Z 29005KT 25/14 A3025 RMK A01 T02540141  RH  049%=      5-min Rain = 0
KPD2 141622Z 31005KT 26/14 A3025 RMK A01 T02560139  RH  049%=      5-min Rain = 0
KPD2 141623Z 30005KT 26/14 A3025 RMK A01 T02560138  RH  048%=      5-min Rain = 0
KPD2 141624Z 27005KT 25/14 A3025 RMK A01 T02540139  RH  049%=      5-min Rain = 0
KPD2 141625Z 26005KT 25/14 A3025 RMK A01 T02540141  RH  049%=      5-min Rain = 0
KPD2 141626Z 26004KT 26/14 A3025 RMK A01 T02570140  RH  048%=      5-min Rain = 0
KPD2 141627Z 28002KT 26/14 A3025 RMK A01 T02580140  RH  048%=      5-min Rain = 0
KPD2 141628Z 25004KT 26/14 A3025 RMK A01 T02590140  RH  048%=      5-min Rain = 0
KPD2 141629Z 24001KT 26/14 A3025 RMK A01 T02620141  RH  047%=      5-min Rain = 0
KPD2 141630Z 13001KT 26/14 A3025 RMK A01 T02630136  RH  046%=      5-min Rain = 0
KPD2 141631Z 23003KT 26/14 A3025 RMK A01 T02630139  RH  046%=      5-min Rain = 0
KPD2 141632Z 22003KT 27/14 A3025 RMK A01 T02660140  RH  046%=      5-min Rain = 0
KPD2 141633Z 21002KT 27/14 A3025 RMK A01 T02660138  RH  045%=      5-min Rain = 0
KPD2 141634Z 21005KT 27/14 A3025 RMK A01 T02660140  RH  046%=      5-min Rain = 0
KPD2 141635Z 23003KT 27/14 A3025 RMK A01 T02680140  RH  045%=      5-min Rain = 0
KPD2 141636Z 20004KT 27/14 A3024 RMK A01 T02690140  RH  045%=      5-min Rain = 0
KPD2 141637Z 20003KT 27/14 A3024 RMK A01 T02690138  RH  044%=      5-min Rain = 0
KPD2 141638Z 21002KT 27/14 A3024 RMK A01 T02690140  RH  045%=      5-min Rain = 0
KPD2 141639Z 23002KT 27/14 A3024 RMK A01 T02710141  RH  045%=      5-min Rain = 0
KPD2 141640Z 23003KT 27/14 A3024 RMK A01 T02730140  RH  044%=      5-min Rain = 0
KPD2 141641Z 21001KT 27/14 A3024 RMK A01 T02740141  RH  044%=      5-min Rain = 0
KPD2 141642Z 24001KT 27/14 A3024 RMK A01 T02740141  RH  044%=      5-min Rain = 0
KPD2 141643Z 33003KT 27/14 A3024 RMK A01 T02740142  RH  044%=      5-min Rain = 0
KPD2 141644Z 29002KT 27/14 A3024 RMK A01 T02740138  RH  043%=      5-min Rain = 0
KPD2 141645Z 33001KT 27/14 A3024 RMK A01 T02730140  RH  044%=      5-min Rain = 0
KPD2 141646Z 26002KT 27/14 A3024 RMK A01 T02730140  RH  044%=      5-min Rain = 0
KPD2 141647Z 20002KT 27/14 A3024 RMK A01 T02740139  RH  044%=      5-min Rain = 0
KPD2 141648Z 18003KT 27/14 A3024 RMK A01 T02740138  RH  043%=      5-min Rain = 0
KPD2 141649Z 20003KT 27/14 A3024 RMK A01 T02720138  RH  044%=      5-min Rain = 0
KPD2 141650Z 22003KT 27/14 A3024 RMK A01 T02700138  RH  044%=      5-min Rain = 0
KPD2 141651Z 28003KT 27/14 A3024 RMK A01 T02680140  RH  045%=      5-min Rain = 0
KPD2 141652Z 31004KT 27/14 A3024 RMK A01 T02700135  RH  044%=      5-min Rain = 0
KPD2 141653Z 33002KT 27/13 A3024 RMK A01 T02700134  RH  043%=      5-min Rain = 0
KPD2 141654Z 00002KT 27/13 A3024 RMK A01 T02720133  RH  042%=      5-min Rain = 0
KPD2 141655Z 01005KT 28/14 A3023 RMK A01 T02750136  RH  042%=      5-min Rain = 0
KPD2 141656Z 00002KT 28/13 A3023 RMK A01 T02780126  RH  039%=      5-min Rain = 0
KPD2 141657Z 15004KT 28/13 A3023 RMK A01 T02780127  RH  039%=      5-min Rain = 0
KPD2 141658Z 12010G17KT 28/13 A3023 RMK A01 T02780128  RH  039%=      5-min Rain = 0
KPD2 141659Z 09005KT 28/13 A3023 RMK A01 T02810129  RH  039%=      5-min Rain = 0
KPD2 141700Z 09005G10KT 28/13 A3023 RMK A01 T02840129  RH  038%=      5-min Rain = 0
KPD2 141701Z 11005KT 29/13 A3023 RMK A01 T02860130  RH  038%=      5-min Rain = 0
KPD2 141702Z 14002KT 29/13 A3023 RMK A01 T02860129  RH  038%=      5-min Rain = 0
KPD2 141703Z 09001KT 29/13 A3023 RMK A01 T02870131  RH  038%=      5-min Rain = 0
KPD2 141704Z 10005KT 29/13 A3023 RMK A01 T02870132  RH  038%=      5-min Rain = 0
KPD2 141705Z 09003KT 29/14 A3023 RMK A01 T02890135  RH  039%=      5-min Rain = 0
KPD2 141706Z 14001KT 29/13 A3023 RMK A01 T02910132  RH  038%=      5-min Rain = 0
KPD2 141707Z 05004KT 29/13 A3023 RMK A01 T02930134  RH  038%=      5-min Rain = 0
KPD2 141708Z 06005KT 29/13 A3024 RMK A01 T02930133  RH  038%=      5-min Rain = 0
KPD2 141709Z 11003KT 29/13 A3024 RMK A01 T02930133  RH  037%=      5-min Rain = 0
KPD2 141710Z 16003KT 29/13 A3024 RMK A01 T02920133  RH  038%=      5-min Rain = 0
KPD2 141711Z 11002KT 29/13 A3024 RMK A01 T02900134  RH  038%=      5-min Rain = 0
KPD2 141712Z 08003KT 29/14 A3024 RMK A01 T02900135  RH  038%=      5-min Rain = 0
KPD2 141713Z 10003KT 29/13 A3023 RMK A01 T02920133  RH  038%=      5-min Rain = 0
KPD2 141714Z 03008KT 29/14 A3023 RMK A01 T02900135  RH  039%=      5-min Rain = 0
KPD2 141715Z 04006KT 29/14 A3024 RMK A01 T02910137  RH  039%=      5-min Rain = 0
KPD2 141716Z 05006KT 29/14 A3023 RMK A01 T02910135  RH  038%=      5-min Rain = 0
KPD2 141717Z 35011KT 29/14 A3023 RMK A01 T02890138  RH  039%=      5-min Rain = 0
KPD2 141718Z 34009KT 29/14 A3023 RMK A01 T02900139  RH  040%=      5-min Rain = 0
KPD2 141719Z 32007KT 29/14 A3023 RMK A01 T02890138  RH  039%=      5-min Rain = 0
KPD2 141720Z 33009KT 29/14 A3023 RMK A01 T02890139  RH  040%=      5-min Rain = 0
KPD2 141721Z 32013G18KT 29/14 A3023 RMK A01 T02890136  RH  039%=      5-min Rain = 0
KPD2 141722Z 00009G15KT 29/14 A3023 RMK A01 T02850135  RH  040%=      5-min Rain = 0
KPD2 141723Z 06002KT 28/14 A3023 RMK A01 T02840135  RH  040%=      5-min Rain = 0
KPD2 141724Z 17001KT 29/13 A3023 RMK A01 T02850133  RH  039%=      5-min Rain = 0
KPD2 141725Z 29001KT 28/14 A3023 RMK A01 T02840135  RH  040%=      5-min Rain = 0
KPD2 141726Z 35004G9KT 29/14 A3023 RMK A01 T02860136  RH  040%=      5-min Rain = 0
KPD2 141727Z 35007KT 29/14 A3023 RMK A01 T02890139  RH  040%=      5-min Rain = 0
KPD2 141728Z 02005KT 30/14 A3023 RMK A01 T02950139  RH  039%=      5-min Rain = 0
KPD2 141729Z 04002KT 30/14 A3023 RMK A01 T02960136  RH  038%=      5-min Rain = 0
KPD2 141730Z 26003KT 30/14 A3023 RMK A01 T02950136  RH  038%=      5-min Rain = 0
KPD2 141731Z 35006KT 30/14 A3023 RMK A01 T02960138  RH  038%=      5-min Rain = 0
KPD2 141732Z 33007KT 30/14 A3023 RMK A01 T02990136  RH  037%=      5-min Rain = 0
KPD2 141733Z 33006G11KT 30/13 A3023 RMK A01 T02970133  RH  037%=      5-min Rain = 0
KPD2 141734Z 34003KT 29/14 A3023 RMK A01 T02930135  RH  038%=      5-min Rain = 0
KPD2 141735Z 03003G8KT 29/14 A3023 RMK A01 T02920137  RH  039%=      5-min Rain = 0
KPD2 141736Z 35006G11KT 29/14 A3022 RMK A01 T02920136  RH  038%=      5-min Rain = 0
KPD2 141737Z 01006KT 29/14 A3022 RMK A01 T02940138  RH  039%=      5-min Rain = 0
KPD2 141738Z 01004KT 30/14 A3022 RMK A01 T02960138  RH  038%=      5-min Rain = 0
KPD2 141739Z 11006KT 30/14 A3022 RMK A01 T02970136  RH  037%=      5-min Rain = 0
KPD2 141740Z 09005KT 30/14 A3022 RMK A01 T02970137  RH  038%=      5-min Rain = 0
KPD2 141741Z 14005KT 30/14 A3022 RMK A01 T02990135  RH  037%=      5-min Rain = 0
KPD2 141742Z 13005KT 30/13 A3022 RMK A01 T02990134  RH  036%=      5-min Rain = 0
KPD2 141743Z 07006G12KT 30/14 A3022 RMK A01 T03000137  RH  037%=      5-min Rain = 0
KPD2 141744Z 05005KT 30/13 A3022 RMK A01 T03000134  RH  036%=      5-min Rain = 0
KPD2 141745Z 01003KT 30/14 A3022 RMK A01 T02990136  RH  037%=      5-min Rain = 0
KPD2 141746Z 13003KT 30/14 A3022 RMK A01 T02990135  RH  036%=      5-min Rain = 0
KPD2 141747Z 15003KT 30/13 A3022 RMK A01 T02980134  RH  037%=      5-min Rain = 0
KPD2 141748Z 10003KT 30/13 A3022 RMK A01 T02970133  RH  037%=      5-min Rain = 0
KPD2 141749Z 35002KT 29/13 A3022 RMK A01 T02940132  RH  037%=      5-min Rain = 0
KPD2 141750Z 02001KT 29/13 A3022 RMK A01 T02930134  RH  038%=      5-min Rain = 0
KPD2 141751Z 31001KT 29/14 A3022 RMK A01 T02930135  RH  038%=      5-min Rain = 0
KPD2 141752Z 31000KT 30/14 A3022 RMK A01 T02950135  RH  037%=      5-min Rain = 0
KPD2 141753Z 02002KT 29/14 A3022 RMK A01 T02940136  RH  038%=      5-min Rain = 0
KPD2 141754Z 07004KT 30/14 A3022 RMK A01 T02960138  RH  038%=      5-min Rain = 0
KPD2 141755Z 09003KT 30/14 A3022 RMK A01 T02990140  RH  038%=      5-min Rain = 0
KPD2 141756Z 06003KT 30/14 A3022 RMK A01 T03020140  RH  037%=      5-min Rain = 0
KPD2 141757Z 07002KT 30/14 A3022 RMK A01 T03040140  RH  037%=      5-min Rain = 0
KPD2 141758Z 00002G7KT 31/14 A3021 RMK A01 T03060142  RH  037%=      5-min Rain = 0
KPD2 141759Z 33005KT 31/14 A3021 RMK A01 T03080138  RH  036%=      5-min Rain = 0
KPD2 141800Z 34006KT 30/14 A3021 RMK A01 T03040136  RH  036%=      5-min Rain = 0
KPD2 141801Z 06003KT 30/14 A3021 RMK A01 T03010136  RH  037%=      5-min Rain = 0
KPD2 141802Z 35001KT 30/14 A302 RMK A01 T03000138  RH  037%=      5-min Rain = 0
KPD2 141803Z 05002KT 30/14 A302 RMK A01 T03030141  RH  037%=      5-min Rain = 0
KPD2 141804Z 17003KT 31/14 A302 RMK A01 T03060138  RH  036%=      5-min Rain = 0
KPD2 141805Z 29002KT 30/14 A302 RMK A01 T03030138  RH  036%=      5-min Rain = 0
KPD2 141806Z 05004KT 30/14 A302 RMK A01 T03000138  RH  037%=      5-min Rain = 0
KPD2 141807Z 02003KT 30/14 A302 RMK A01 T03010138  RH  037%=      5-min Rain = 0
KPD2 141808Z 07006KT 30/14 A302 RMK A01 T03040139  RH  036%=      5-min Rain = 0
KPD2 141809Z 01004KT 31/14 A302 RMK A01 T03050137  RH  036%=      5-min Rain = 0
KPD2 141810Z 02006KT 31/14 A3019 RMK A01 T03050139  RH  036%=      5-min Rain = 0
KPD2 141811Z 01005KT 31/14 A3019 RMK A01 T03060140  RH  036%=      5-min Rain = 0
KPD2 141812Z 05004KT 31/14 A3019 RMK A01 T03080139  RH  036%=      5-min Rain = 0
KPD2 141813Z 08003KT 31/14 A3019 RMK A01 T03090139  RH  036%=      5-min Rain = 0
KPD2 141814Z 10007KT 31/14 A3019 RMK A01 T03110141  RH  036%=      5-min Rain = 0
KPD2 141815Z 10006KT 31/14 A3019 RMK A01 T03130139  RH  035%=      5-min Rain = 0
KPD2 141816Z 12002KT 31/14 A3019 RMK A01 T03110139  RH  035%=      5-min Rain = 0
KPD2 141817Z 21003KT 31/14 A3018 RMK A01 T03080138  RH  035%=      5-min Rain = 0
KPD2 141818Z 16004KT 31/14 A3018 RMK A01 T03060139  RH  036%=      5-min Rain = 0
KPD2 141819Z 13009G14KT 31/14 A3018 RMK A01 T03050137  RH  036%=      5-min Rain = 0
KPD2 141820Z 12009KT 30/14 A3018 RMK A01 T03040137  RH  036%=      5-min Rain = 0
KPD2 141821Z 13008KT 31/14 A3018 RMK A01 T03070138  RH  036%=      5-min Rain = 0
KPD2 141822Z 10008KT 31/14 A3018 RMK A01 T03070136  RH  035%=      5-min Rain = 0
KPD2 141823Z 10007KT 31/14 A3018 RMK A01 T03060136  RH  035%=      5-min Rain = 0
KPD2 141824Z 11008KT 31/14 A3018 RMK A01 T03060135  RH  035%=      5-min Rain = 0
KPD2 141825Z 13007KT 31/13 A3018 RMK A01 T03070134  RH  035%=      5-min Rain = 0
KPD2 141826Z 12005G10KT 31/13 A3018 RMK A01 T03090132  RH  034%=      5-min Rain = 0
KPD2 141827Z 12002KT 31/13 A3017 RMK A01 T03090131  RH  034%=      5-min Rain = 0
KPD2 141828Z 11005KT 31/13 A3017 RMK A01 T03080134  RH  034%=      5-min Rain = 0
KPD2 141829Z 11006KT 31/13 A3017 RMK A01 T03090134  RH  034%=      5-min Rain = 0
KPD2 141830Z 07002KT 31/14 A3017 RMK A01 T03130135  RH  034%=      5-min Rain = 0
KPD2 141831Z 16005KT 32/13 A3017 RMK A01 T03170134  RH  033%=      5-min Rain = 0
KPD2 141832Z 18004KT 31/13 A3016 RMK A01 T03120134  RH  034%=      5-min Rain = 0
KPD2 141833Z 17004KT 31/14 A3016 RMK A01 T03070136  RH  035%=      5-min Rain = 0
KPD2 141834Z 11005KT 31/14 A3016 RMK A01 T03050135  RH  035%=      5-min Rain = 0
KPD2 141835Z 13003KT 31/13 A3016 RMK A01 T03050131  RH  035%=      5-min Rain = 0
KPD2 141836Z 13006KT 31/13 A3017 RMK A01 T03050133  RH  035%=      5-min Rain = 0
KPD2 141837Z 11004KT 31/14 A3017 RMK A01 T03060136  RH  035%=      5-min Rain = 0
KPD2 141838Z 10004KT 31/14 A3017 RMK A01 T03100137  RH  035%=      5-min Rain = 0
KPD2 141839Z 16004KT 31/14 A3017 RMK A01 T03130135  RH  034%=      5-min Rain = 0
KPD2 141840Z 18003KT 32/14 A3017 RMK A01 T03150136  RH  034%=      5-min Rain = 0
KPD2 141841Z 16008KT 31/13 A3017 RMK A01 T03140134  RH  033%=      5-min Rain = 0
KPD2 141842Z 15005KT 31/13 A3017 RMK A01 T03110132  RH  034%=      5-min Rain = 0
KPD2 141843Z 15003KT 31/13 A3016 RMK A01 T03090133  RH  034%=      5-min Rain = 0
KPD2 141844Z 12004KT 31/14 A3016 RMK A01 T03110135  RH  034%=      5-min Rain = 0
KPD2 141845Z 12003KT 31/13 A3016 RMK A01 T03140131  RH  033%=      5-min Rain = 0
KPD2 141846Z 09004KT 32/13 A3016 RMK A01 T03160134  RH  033%=      5-min Rain = 0
KPD2 141847Z 09002KT 32/13 A3016 RMK A01 T03180134  RH  033%=      5-min Rain = 0
KPD2 141848Z 14004KT 32/13 A3016 RMK A01 T03190133  RH  032%=      5-min Rain = 0
KPD2 141849Z 16006KT 32/14 A3016 RMK A01 T03180135  RH  033%=      5-min Rain = 0
KPD2 141850Z 16008KT 32/14 A3016 RMK A01 T03180136  RH  033%=      5-min Rain = 0
KPD2 141851Z 17004KT 32/14 A3016 RMK A01 T03180135  RH  033%=      5-min Rain = 0
KPD2 141852Z 17004KT 32/13 A3016 RMK A01 T03150134  RH  033%=      5-min Rain = 0
KPD2 141853Z 19004KT 31/13 A3016 RMK A01 T03130133  RH  033%=      5-min Rain = 0
KPD2 141854Z 16005KT 31/13 A3016 RMK A01 T03110134  RH  034%=      5-min Rain = 0
KPD2 141855Z 17003KT 31/13 A3016 RMK A01 T03110132  RH  034%=      5-min Rain = 0
KPD2 141856Z 13003KT 31/13 A3016 RMK A01 T03110131  RH  033%=      5-min Rain = 0
KPD2 141857Z 15002KT 31/13 A3016 RMK A01 T03110130  RH  033%=      5-min Rain = 0
KPD2 141858Z 28001KT 31/13 A3016 RMK A01 T03120131  RH  033%=      5-min Rain = 0
KPD2 141859Z 13006KT 31/13 A3016 RMK A01 T03110131  RH  033%=      5-min Rain = 0
KPD2 141900Z 11003KT 31/13 A3016 RMK A01 T03110131  RH  033%=      5-min Rain = 0
KPD2 141901Z 07001KT 31/13 A3016 RMK A01 T03110132  RH  034%=      5-min Rain = 0
KPD2 141902Z 17001KT 31/13 A3016 RMK A01 T03120132  RH  033%=      5-min Rain = 0
KPD2 141903Z 12004KT 31/13 A3016 RMK A01 T03140133  RH  033%=      5-min Rain = 0
KPD2 141904Z 11005KT 32/14 A3016 RMK A01 T03170138  RH  034%=      5-min Rain = 0
KPD2 141905Z 11006KT 32/14 A3016 RMK A01 T03210139  RH  033%=      5-min Rain = 0
KPD2 141906Z 12004KT 32/14 A3016 RMK A01 T03230137  RH  032%=      5-min Rain = 0
KPD2 141907Z 14003KT 33/13 A3016 RMK A01 T03250134  RH  031%=      5-min Rain = 0
KPD2 141908Z 12003KT 32/14 A3016 RMK A01 T03230135  RH  032%=      5-min Rain = 0
KPD2 141909Z 11002KT 32/14 A3015 RMK A01 T03220135  RH  032%=      5-min Rain = 0
KPD2 141910Z 14002KT 32/13 A3015 RMK A01 T03210133  RH  032%=      5-min Rain = 0
KPD2 141911Z 19001KT 32/13 A3015 RMK A01 T03200132  RH  032%=      5-min Rain = 0
KPD2 141912Z 10001KT 32/14 A3015 RMK A01 T03180135  RH  033%=      5-min Rain = 0
KPD2 141913Z 12002KT 32/14 A3015 RMK A01 T03210136  RH  032%=      5-min Rain = 0
KPD2 141914Z 16004KT 33/14 A3015 RMK A01 T03250135  RH  032%=      5-min Rain = 0
KPD2 141915Z 09002KT 32/14 A3015 RMK A01 T03240136  RH  032%=      5-min Rain = 0
KPD2 141916Z 11001KT 33/14 A3015 RMK A01 T03260139  RH  032%=      5-min Rain = 0
KPD2 141917Z 13002KT 33/14 A3015 RMK A01 T03290137  RH  031%=      5-min Rain = 0
KPD2 141918Z 12004KT 33/14 A3015 RMK A01 T03330139  RH  031%=      5-min Rain = 0
KPD2 141919Z 12001KT 34/14 A3015 RMK A01 T03360138  RH  030%=      5-min Rain = 0
KPD2 141920Z 11002KT 34/14 A3015 RMK A01 T03360137  RH  030%=      5-min Rain = 0
KPD2 141921Z 13005KT 34/14 A3015 RMK A01 T03350139  RH  031%=      5-min Rain = 0
KPD2 141922Z 11006KT 33/14 A3015 RMK A01 T03340139  RH  031%=      5-min Rain = 0
KPD2 141923Z 10004KT 33/14 A3015 RMK A01 T03340140  RH  031%=      5-min Rain = 0
KPD2 141924Z 05001KT 34/14 A3015 RMK A01 T03350141  RH  031%=      5-min Rain = 0
KPD2 141925Z 13003KT 34/14 A3015 RMK A01 T03370140  RH  030%=      5-min Rain = 0
KPD2 141926Z 14004G9KT 34/14 A3015 RMK A01 T03380139  RH  030%=      5-min Rain = 0
KPD2 141927Z 17007KT 34/14 A3015 RMK A01 T03360137  RH  030%=      5-min Rain = 0
KPD2 141928Z 17005KT 33/13 A3015 RMK A01 T03310134  RH  030%=      5-min Rain = 0
KPD2 141929Z 15008KT 33/14 A3015 RMK A01 T03280135  RH  031%=      5-min Rain = 0
KPD2 141930Z 16003KT 33/14 A3015 RMK A01 T03250135  RH  032%=      5-min Rain = 0
KPD2 141931Z 25002KT 32/14 A3015 RMK A01 T03240137  RH  032%=      5-min Rain = 0
KPD2 141932Z 25002KT 33/14 A3015 RMK A01 T03250138  RH  032%=      5-min Rain = 0
KPD2 141933Z 21001KT 33/14 A3015 RMK A01 T03260139  RH  032%=      5-min Rain = 0
KPD2 141934Z 17003KT 33/14 A3015 RMK A01 T03280137  RH  032%=      5-min Rain = 0
KPD2 141935Z 17006KT 33/14 A3015 RMK A01 T03290137  RH  031%=      5-min Rain = 0
KPD2 141936Z 18005KT 33/14 A3015 RMK A01 T03300136  RH  031%=      5-min Rain = 0
KPD2 141937Z 20003KT 33/14 A3015 RMK A01 T03280137  RH  031%=      5-min Rain = 0
KPD2 141938Z 00003KT 33/14 A3015 RMK A01 T03310140  RH  032%=      5-min Rain = 0
KPD2 141939Z 01003KT 34/14 A3015 RMK A01 T03350141  RH  031%=      5-min Rain = 0
KPD2 141940Z 11009KT 34/14 A3015 RMK A01 T03370139  RH  030%=      5-min Rain = 0
KPD2 141941Z 11008KT 34/14 A3015 RMK A01 T03370138  RH  030%=      5-min Rain = 0
KPD2 141942Z 12006KT 34/14 A3015 RMK A01 T03350138  RH  031%=      5-min Rain = 0
KPD2 141943Z 14009KT 33/14 A3015 RMK A01 T03340136  RH  030%=      5-min Rain = 0
KPD2 141944Z 16008KT 33/14 A3015 RMK A01 T03310135  RH  030%=      5-min Rain = 0
KPD2 141945Z 14008KT 33/14 A3015 RMK A01 T03290136  RH  031%=      5-min Rain = 0
KPD2 141946Z 10006KT 33/14 A3015 RMK A01 T03300137  RH  031%=      5-min Rain = 0
KPD2 141947Z 10005KT 33/14 A3015 RMK A01 T03310136  RH  031%=      5-min Rain = 0
KPD2 141948Z 11002KT 33/14 A3015 RMK A01 T03300136  RH  031%=      5-min Rain = 0
KPD2 141949Z 13004KT 33/14 A3015 RMK A01 T03300135  RH  031%=      5-min Rain = 0
KPD2 141950Z 12002KT 33/13 A3015 RMK A01 T03280133  RH  031%=      5-min Rain = 0
KPD2 141951Z 29001KT 33/14 A3015 RMK A01 T03270135  RH  031%=      5-min Rain = 0
KPD2 141952Z 14004KT 33/14 A3015 RMK A01 T03270136  RH  031%=      5-min Rain = 0
KPD2 141953Z 13007KT 33/13 A3015 RMK A01 T03280133  RH  031%=      5-min Rain = 0
KPD2 141954Z 14007KT 33/13 A3015 RMK A01 T03290134  RH  031%=      5-min Rain = 0
KPD2 141955Z 15005KT 33/13 A3015 RMK A01 T03300133  RH  030%=      5-min Rain = 0
KPD2 141956Z 16001G6KT 33/13 A3015 RMK A01 T03270133  RH  031%=      5-min Rain = 0
KPD2 141957Z 14006KT 33/13 A3015 RMK A01 T03270134  RH  031%=      5-min Rain = 0
KPD2 141958Z 14006KT 33/13 A3015 RMK A01 T03290134  RH  031%=      5-min Rain = 0
KPD2 141959Z 18004KT 33/13 A3015 RMK A01 T03290132  RH  030%=      5-min Rain = 0
KPD2 142000Z 15006KT 33/13 A3015 RMK A01 T03270133  RH  031%=      5-min Rain = 0
KPD2 142001Z 16004KT 33/13 A3015 RMK A01 T03270132  RH  031%=      5-min Rain = 0
KPD2 142002Z 18002KT 33/13 A3015 RMK A01 T03270132  RH  031%=      5-min Rain = 0
KPD2 142003Z 09001KT 33/13 A3014 RMK A01 T03280132  RH  031%=      5-min Rain = 0
KPD2 142004Z 11002KT 33/13 A3014 RMK A01 T03290132  RH  030%=      5-min Rain = 0
KPD2 142005Z 08000KT 33/13 A3014 RMK A01 T03280131  RH  030%=      5-min Rain = 0
KPD2 142006Z 35000KT 33/13 A3014 RMK A01 T03280133  RH  031%=      5-min Rain = 0
KPD2 142007Z 30003KT 33/14 A3014 RMK A01 T03310136  RH  031%=      5-min Rain = 0
KPD2 142008Z 32003KT 33/13 A3014 RMK A01 T03330132  RH  030%=      5-min Rain = 0
KPD2 142009Z 31002KT 33/14 A3014 RMK A01 T03310135  RH  030%=      5-min Rain = 0
KPD2 142010Z 31002KT 33/13 A3014 RMK A01 T03320134  RH  030%=      5-min Rain = 0
KPD2 142011Z 35006KT 33/14 A3014 RMK A01 T03340136  RH  030%=      5-min Rain = 0
KPD2 142012Z 35005KT 34/14 A3014 RMK A01 T03400139  RH  030%=      5-min Rain = 0
KPD2 142013Z 34003KT 34/13 A3014 RMK A01 T03420134  RH  029%=      5-min Rain = 0
KPD2 142014Z 30004KT 34/13 A3014 RMK A01 T03380131  RH  029%=      5-min Rain = 0
KPD2 142015Z 30004KT 33/13 A3013 RMK A01 T03340132  RH  029%=      5-min Rain = 0
KPD2 142016Z 28004KT 34/14 A3013 RMK A01 T03350135  RH  030%=      5-min Rain = 0
KPD2 142017Z 30004KT 34/13 A3013 RMK A01 T03370134  RH  029%=      5-min Rain = 0
KPD2 142018Z 36002KT 34/13 A3013 RMK A01 T03360134  RH  030%=      5-min Rain = 0
KPD2 142019Z 34003KT 34/14 A3013 RMK A01 T03380136  RH  030%=      5-min Rain = 0
KPD2 142020Z 34005KT 34/14 A3013 RMK A01 T03420137  RH  029%=      5-min Rain = 0
KPD2 142021Z 32005KT 34/13 A3013 RMK A01 T03430134  RH  028%=      5-min Rain = 0
KPD2 142022Z 31004KT 34/13 A3013 RMK A01 T03390130  RH  028%=      5-min Rain = 0
KPD2 142023Z 34004KT 34/13 A3013 RMK A01 T03350133  RH  029%=      5-min Rain = 0
KPD2 142024Z 33003KT 34/13 A3013 RMK A01 T03360133  RH  029%=      5-min Rain = 0
KPD2 142025Z 32004KT 34/14 A3013 RMK A01 T03400135  RH  029%=      5-min Rain = 0
KPD2 142026Z 34004KT 34/13 A3013 RMK A01 T03410133  RH  028%=      5-min Rain = 0
KPD2 142027Z 02004KT 34/13 A3013 RMK A01 T03410134  RH  029%=      5-min Rain = 0
KPD2 142028Z 02005KT 34/13 A3013 RMK A01 T03440133  RH  028%=      5-min Rain = 0
KPD2 142029Z 01004KT 35/14 A3012 RMK A01 T03480139  RH  028%=      5-min Rain = 0
KPD2 142030Z 14005KT 35/14 A3012 RMK A01 T03540138  RH  027%=      5-min Rain = 0
KPD2 142031Z 19005KT 35/14 A3012 RMK A01 T03530136  RH  027%=      5-min Rain = 0
KPD2 142032Z 19003KT 35/13 A3012 RMK A01 T03470134  RH  028%=      5-min Rain = 0
KPD2 142033Z 20004KT 34/13 A3012 RMK A01 T03430134  RH  028%=      5-min Rain = 0
KPD2 142034Z 22003KT 34/14 A3012 RMK A01 T03420136  RH  029%=      5-min Rain = 0
KPD2 142035Z 18003KT 34/14 A3012 RMK A01 T03420135  RH  029%=      5-min Rain = 0
KPD2 142036Z 19006KT 34/13 A3012 RMK A01 T03410134  RH  029%=      5-min Rain = 0
KPD2 142037Z 19004KT 34/13 A3012 RMK A01 T03410134  RH  029%=      5-min Rain = 0
KPD2 142038Z 20003KT 34/14 A3012 RMK A01 T03390135  RH  029%=      5-min Rain = 0
KPD2 142039Z 21003KT 34/14 A3012 RMK A01 T03400137  RH  029%=      5-min Rain = 0
KPD2 142040Z 23003KT 35/14 A3012 RMK A01 T03450138  RH  029%=      5-min Rain = 0
KPD2 142041Z 17005KT 35/14 A3012 RMK A01 T03480136  RH  028%=      5-min Rain = 0
KPD2 142042Z 17005KT 35/14 A3012 RMK A01 T03470135  RH  028%=      5-min Rain = 0
KPD2 142043Z 17006KT 35/14 A3012 RMK A01 T03460135  RH  028%=      5-min Rain = 0
KPD2 142044Z 14005KT 35/14 A3012 RMK A01 T03450136  RH  028%=      5-min Rain = 0
KPD2 142045Z 11007KT 35/14 A3012 RMK A01 T03470135  RH  028%=      5-min Rain = 0
KPD2 142046Z 07006KT 35/14 A3012 RMK A01 T03480135  RH  028%=      5-min Rain = 0
KPD2 142047Z 05006KT 35/13 A3012 RMK A01 T03470134  RH  028%=      5-min Rain = 0
KPD2 142048Z 05002KT 35/14 A3012 RMK A01 T03450135  RH  028%=      5-min Rain = 0
KPD2 142049Z 18001KT 35/13 A3012 RMK A01 T03460134  RH  028%=      5-min Rain = 0
KPD2 142050Z 21002KT 34/13 A3012 RMK A01 T03430130  RH  028%=      5-min Rain = 0
KPD2 142051Z 22003KT 34/13 A3011 RMK A01 T03400134  RH  029%=      5-min Rain = 0
KPD2 142052Z 22003KT 34/13 A3011 RMK A01 T03390131  RH  028%=      5-min Rain = 0
KPD2 142053Z 17002KT 34/13 A3011 RMK A01 T03360130  RH  029%=      5-min Rain = 0
KPD2 142054Z 17002KT 34/13 A3011 RMK A01 T03350130  RH  029%=      5-min Rain = 0
KPD2 142055Z 14002KT 34/13 A3011 RMK A01 T03350130  RH  029%=      5-min Rain = 0
KPD2 142056Z 13002KT 34/13 A3011 RMK A01 T03380133  RH  029%=      5-min Rain = 0
KPD2 142057Z 07003KT 34/13 A3011 RMK A01 T03430133  RH  028%=      5-min Rain = 0
KPD2 142058Z 07005KT 35/13 A3011 RMK A01 T03460133  RH  028%=      5-min Rain = 0
KPD2 142059Z 04001KT 35/13 A3011 RMK A01 T03480132  RH  027%=      5-min Rain = 0
KPD2 142100Z 01001KT 35/14 A3011 RMK A01 T03480136  RH  028%=      5-min Rain = 0
KPD2 142101Z 35002KT 35/14 A3011 RMK A01 T03510137  RH  028%=      5-min Rain = 0
KPD2 142102Z 16002KT 35/13 A3011 RMK A01 T03530132  RH  027%=      5-min Rain = 0
KPD2 142103Z 08004KT 35/14 A3011 RMK A01 T03530135  RH  027%=      5-min Rain = 0
KPD2 142104Z 08004KT 35/13 A3011 RMK A01 T03530133  RH  027%=      5-min Rain = 0
KPD2 142105Z 12003KT 35/13 A3011 RMK A01 T03520132  RH  027%=      5-min Rain = 0
KPD2 142106Z 13002KT 35/13 A3011 RMK A01 T03500130  RH  027%=      5-min Rain = 0
KPD2 142107Z 11008KT 35/13 A3011 RMK A01 T03490132  RH  027%=      5-min Rain = 0
KPD2 142108Z 08005KT 35/13 A3011 RMK A01 T03510133  RH  027%=      5-min Rain = 0
KPD2 142109Z 10002KT 35/13 A3011 RMK A01 T03530132  RH  026%=      5-min Rain = 0
KPD2 142110Z 20001KT 35/13 A3011 RMK A01 T03540130  RH  026%=      5-min Rain = 0
KPD2 142111Z 14001KT 35/13 A3011 RMK A01 T03510130  RH  026%=      5-min Rain = 0
KPD2 142112Z 13003KT 35/13 A3011 RMK A01 T03500130  RH  027%=      5-min Rain = 0
KPD2 142113Z 11003KT 35/13 A3011 RMK A01 T03490130  RH  027%=      5-min Rain = 0
KPD2 142114Z 06006KT 35/13 A3011 RMK A01 T03480130  RH  027%=      5-min Rain = 0
KPD2 142115Z 10005KT 35/13 A3011 RMK A01 T03470131  RH  027%=      5-min Rain = 0
KPD2 142116Z 09004KT 35/13 A301 RMK A01 T03500132  RH  027%=      5-min Rain = 0
KPD2 142117Z 08004KT 35/13 A301 RMK A01 T03520131  RH  027%=      5-min Rain = 0
KPD2 142118Z 06006KT 35/13 A301 RMK A01 T03510131  RH  027%=      5-min Rain = 0
KPD2 142119Z 05004KT 35/13 A301 RMK A01 T03500131  RH  027%=      5-min Rain = 0
KPD2 142120Z 10002KT 35/13 A301 RMK A01 T03490129  RH  027%=      5-min Rain = 0
KPD2 142121Z 16003KT 35/13 A301 RMK A01 T03480128  RH  027%=      5-min Rain = 0
KPD2 142122Z 12006KT 35/13 A301 RMK A01 T03490130  RH  027%=      5-min Rain = 0
KPD2 142123Z 13004KT 35/13 A301 RMK A01 T03520130  RH  026%=      5-min Rain = 0
KPD2 142124Z 13003KT 35/13 A301 RMK A01 T03530129  RH  026%=      5-min Rain = 0
KPD2 142125Z 14003KT 35/13 A301 RMK A01 T03530130  RH  026%=      5-min Rain = 0
KPD2 142126Z 14003KT 35/13 A301 RMK A01 T03520126  RH  026%=      5-min Rain = 0
KPD2 142127Z 12001KT 35/13 A301 RMK A01 T03480127  RH  026%=      5-min Rain = 0
KPD2 142128Z 11001KT 35/13 A301 RMK A01 T03480129  RH  027%=      5-min Rain = 0
KPD2 142129Z 08002KT 35/13 A301 RMK A01 T03500130  RH  027%=      5-min Rain = 0
KPD2 142130Z 08003KT 35/13 A301 RMK A01 T03530128  RH  026%=      5-min Rain = 0
KPD2 142131Z 08005KT 35/13 A301 RMK A01 T03540128  RH  026%=      5-min Rain = 0
KPD2 142132Z 09002KT 35/13 A301 RMK A01 T03520127  RH  026%=      5-min Rain = 0
KPD2 142133Z 10002KT 35/13 A301 RMK A01 T03490126  RH  026%=      5-min Rain = 0
KPD2 142134Z 09003KT 35/13 A3009 RMK A01 T03470127  RH  027%=      5-min Rain = 0
KPD2 142135Z 09002KT 35/13 A3009 RMK A01 T03470128  RH  027%=      5-min Rain = 0
KPD2 142136Z 10003KT 35/13 A3009 RMK A01 T03480129  RH  027%=      5-min Rain = 0
KPD2 142137Z 02003KT 35/13 A3009 RMK A01 T03490128  RH  027%=      5-min Rain = 0
KPD2 142138Z 35006KT 35/13 A3009 RMK A01 T03490130  RH  027%=      5-min Rain = 0
KPD2 142139Z 08003KT 35/13 A3009 RMK A01 T03480129  RH  027%=      5-min Rain = 0
KPD2 142140Z 11004KT 35/13 A3009 RMK A01 T03480129  RH  027%=      5-min Rain = 0
KPD2 142141Z 14003KT 35/13 A3009 RMK A01 T03510130  RH  026%=      5-min Rain = 0
KPD2 142142Z 14005KT 35/13 A3009 RMK A01 T03520129  RH  026%=      5-min Rain = 0
KPD2 142143Z 16005KT 35/13 A3009 RMK A01 T03510128  RH  026%=      5-min Rain = 0
KPD2 142144Z 17004KT 35/13 A3009 RMK A01 T03480128  RH  027%=      5-min Rain = 0
KPD2 142145Z 18003KT 35/13 A3009 RMK A01 T03450126  RH  027%=      5-min Rain = 0
KPD2 142146Z 17004KT 34/13 A3009 RMK A01 T03440127  RH  027%=      5-min Rain = 0
KPD2 142147Z 20003KT 34/13 A3009 RMK A01 T03440127  RH  027%=      5-min Rain = 0
KPD2 142148Z 17003KT 35/13 A3009 RMK A01 T03450129  RH  027%=      5-min Rain = 0
KPD2 142149Z 13005KT 35/13 A3009 RMK A01 T03480128  RH  027%=      5-min Rain = 0
KPD2 142150Z 13006KT 35/13 A3009 RMK A01 T03490128  RH  026%=      5-min Rain = 0
KPD2 142151Z 12006KT 35/13 A3009 RMK A01 T03480128  RH  027%=      5-min Rain = 0
KPD2 142152Z 14005KT 35/13 A3009 RMK A01 T03480128  RH  027%=      5-min Rain = 0
KPD2 142153Z 11005KT 35/13 A3008 RMK A01 T03490129  RH  027%=      5-min Rain = 0
KPD2 142154Z 13006KT 35/13 A3008 RMK A01 T03510128  RH  026%=      5-min Rain = 0
KPD2 142155Z 13007KT 35/13 A3008 RMK A01 T03490127  RH  026%=      5-min Rain = 0
KPD2 142156Z 12008KT 35/13 A3008 RMK A01 T03480128  RH  027%=      5-min Rain = 0
KPD2 142157Z 10010KT 35/13 A3008 RMK A01 T03520129  RH  026%=      5-min Rain = 0
KPD2 142158Z 07012KT 36/13 A3008 RMK A01 T03550128  RH  026%=      5-min Rain = 0
KPD2 142159Z 04008KT 35/13 A3008 RMK A01 T03540129  RH  026%=      5-min Rain = 0
KPD2 142200Z 01006KT 35/13 A3008 RMK A01 T03540129  RH  026%=      5-min Rain = 0
KPD2 142201Z 35003KT 35/13 A3008 RMK A01 T03540129  RH  026%=      5-min Rain = 0
KPD2 142202Z 34003KT 36/13 A3008 RMK A01 T03550129  RH  026%=      5-min Rain = 0
KPD2 142203Z 32007KT 36/13 A3008 RMK A01 T03550130  RH  026%=      5-min Rain = 0
KPD2 142204Z 32005KT 36/13 A3008 RMK A01 T03560130  RH  026%=      5-min Rain = 0
KPD2 142205Z 33006KT 36/13 A3008 RMK A01 T03580129  RH  025%=      5-min Rain = 0
KPD2 142206Z 34006KT 36/13 A3008 RMK A01 T03570129  RH  025%=      5-min Rain = 0
KPD2 142207Z 34004KT 36/13 A3008 RMK A01 T03560127  RH  025%=      5-min Rain = 0
KPD2 142208Z 04005KT 36/13 A3008 RMK A01 T03560129  RH  026%=      5-min Rain = 0
KPD2 142209Z 05005KT 36/13 A3008 RMK A01 T03550126  RH  025%=      5-min Rain = 0
KPD2 142210Z 02003G9KT 35/13 A3008 RMK A01 T03530127  RH  026%=      5-min Rain = 0
KPD2 142211Z 35007KT 35/13 A3008 RMK A01 T03530129  RH  026%=      5-min Rain = 0
KPD2 142212Z 34005KT 36/13 A3008 RMK A01 T03550128  RH  026%=      5-min Rain = 0
KPD2 142213Z 36005KT 36/13 A3008 RMK A01 T03550129  RH  026%=      5-min Rain = 0
KPD2 142214Z 34005KT 36/13 A3008 RMK A01 T03580130  RH  025%=      5-min Rain = 0
KPD2 142215Z 34002KT 36/13 A3008 RMK A01 T03570128  RH  025%=      5-min Rain = 0
KPD2 142216Z 32002KT 36/13 A3008 RMK A01 T03550127  RH  025%=      5-min Rain = 0
KPD2 142217Z 35008KT 36/13 A3008 RMK A01 T03550131  RH  026%=      5-min Rain = 0
KPD2 142218Z 01005KT 36/13 A3008 RMK A01 T03590130  RH  025%=      5-min Rain = 0
KPD2 142219Z 00004KT 36/13 A3008 RMK A01 T03610130  RH  025%=      5-min Rain = 0
KPD2 142220Z 36003KT 36/13 A3008 RMK A01 T03610130  RH  025%=      5-min Rain = 0
KPD2 142221Z 33002KT 36/13 A3008 RMK A01 T03600127  RH  025%=      5-min Rain = 0
KPD2 142222Z 01002KT 36/13 A3008 RMK A01 T03560126  RH  025%=      5-min Rain = 0
KPD2 142223Z 35003KT 36/13 A3008 RMK A01 T03550128  RH  025%=      5-min Rain = 0
KPD2 142224Z 36006KT 36/13 A3008 RMK A01 T03550130  RH  026%=      5-min Rain = 0
KPD2 142225Z 36006KT 36/13 A3007 RMK A01 T03570129  RH  025%=      5-min Rain = 0
KPD2 142226Z 34007KT 36/13 A3007 RMK A01 T03590130  RH  025%=      5-min Rain = 0
KPD2 142227Z 01010KT 36/13 A3007 RMK A01 T03600130  RH  025%=      5-min Rain = 0
KPD2 142228Z 03009KT 36/13 A3007 RMK A01 T03610128  RH  025%=      5-min Rain = 0
KPD2 142229Z 03009KT 36/13 A3008 RMK A01 T03590126  RH  025%=      5-min Rain = 0
KPD2 142230Z 04007KT 35/13 A3008 RMK A01 T03540126  RH  025%=      5-min Rain = 0
KPD2 142231Z 05005KT 35/12 A3008 RMK A01 T03500124  RH  026%=      5-min Rain = 0
KPD2 142232Z 10004KT 35/12 A3008 RMK A01 T03470123  RH  026%=      5-min Rain = 0
KPD2 142233Z 12002KT 35/12 A3008 RMK A01 T03460123  RH  026%=      5-min Rain = 0
KPD2 142234Z 04002KT 35/12 A3007 RMK A01 T03460124  RH  026%=      5-min Rain = 0
KPD2 142235Z 04002KT 35/13 A3007 RMK A01 T03460126  RH  026%=      5-min Rain = 0
KPD2 142236Z 07002KT 35/12 A3007 RMK A01 T03480124  RH  026%=      5-min Rain = 0
KPD2 142237Z 07004KT 35/12 A3007 RMK A01 T03480124  RH  026%=      5-min Rain = 0
KPD2 142238Z 05005KT 35/13 A3007 RMK A01 T03480126  RH  026%=      5-min Rain = 0
KPD2 142239Z 07006KT 35/13 A3007 RMK A01 T03490125  RH  026%=      5-min Rain = 0
KPD2 142240Z 31002KT 35/13 A3007 RMK A01 T03510126  RH  026%=      5-min Rain = 0
KPD2 142241Z 03003KT 35/13 A3007 RMK A01 T03520126  RH  026%=      5-min Rain = 0
KPD2 142242Z 07004KT 35/13 A3007 RMK A01 T03530126  RH  026%=      5-min Rain = 0
KPD2 142243Z 12002KT 35/13 A3007 RMK A01 T03520125  RH  025%=      5-min Rain = 0
KPD2 142244Z 03003KT 35/13 A3007 RMK A01 T03520128  RH  026%=      5-min Rain = 0
KPD2 142245Z 03001KT 35/12 A3007 RMK A01 T03520124  RH  025%=      5-min Rain = 0
KPD2 142246Z 10002KT 35/12 A3007 RMK A01 T03510123  RH  025%=      5-min Rain = 0
KPD2 142247Z 02004KT 35/13 A3007 RMK A01 T03510127  RH  026%=      5-min Rain = 0
KPD2 142248Z 04005KT 35/13 A3007 RMK A01 T03530126  RH  025%=      5-min Rain = 0
KPD2 142249Z 05003KT 35/13 A3007 RMK A01 T03520126  RH  026%=      5-min Rain = 0
KPD2 142250Z 10002KT 35/13 A3007 RMK A01 T03520128  RH  026%=      5-min Rain = 0
KPD2 142251Z 24003KT 36/13 A3007 RMK A01 T03550127  RH  025%=      5-min Rain = 0
KPD2 142252Z 24003KT 36/13 A3007 RMK A01 T03550125  RH  025%=      5-min Rain = 0
KPD2 142253Z 22005KT 35/13 A3007 RMK A01 T03530126  RH  025%=      5-min Rain = 0
KPD2 142254Z 21005KT 35/13 A3007 RMK A01 T03520127  RH  026%=      5-min Rain = 0
KPD2 142255Z 21004KT 35/13 A3007 RMK A01 T03520126  RH  026%=      5-min Rain = 0
KPD2 142256Z 23005KT 35/13 A3007 RMK A01 T03510125  RH  026%=      5-min Rain = 0
KPD2 142257Z 23002KT 35/12 A3007 RMK A01 T03480122  RH  025%=      5-min Rain = 0
KPD2 142258Z 23001KT 35/12 A3007 RMK A01 T03460124  RH  026%=      5-min Rain = 0
KPD2 142259Z 24001KT 35/13 A3007 RMK A01 T03470126  RH  026%=      5-min Rain = 0
KPD2 142300Z 09000KT 35/13 A3007 RMK A01 T03490129  RH  027%=      5-min Rain = 0
KPD2 142301Z 14001KT 35/13 A3007 RMK A01 T03530131  RH  026%=      5-min Rain = 0
KPD2 142302Z 18001KT 36/13 A3007 RMK A01 T03560126  RH  025%=      5-min Rain = 0
KPD2 142303Z 31001KT 36/13 A3007 RMK A01 T03560126  RH  025%=      5-min Rain = 0
KPD2 142304Z 32004KT 36/13 A3007 RMK A01 T03560127  RH  025%=      5-min Rain = 0
KPD2 142305Z 34004KT 36/13 A3007 RMK A01 T03550126  RH  025%=      5-min Rain = 0
KPD2 142306Z 32003KT 36/13 A3007 RMK A01 T03560125  RH  025%=      5-min Rain = 0
KPD2 142307Z 30003KT 36/13 A3007 RMK A01 T03550125  RH  025%=      5-min Rain = 0
KPD2 142308Z 33006KT 36/13 A3007 RMK A01 T03550126  RH  025%=      5-min Rain = 0
KPD2 142309Z 36004KT 36/13 A3007 RMK A01 T03550126  RH  025%=      5-min Rain = 0
KPD2 142310Z 01000KT 36/13 A3007 RMK A01 T03560125  RH  025%=      5-min Rain = 0
KPD2 142311Z 03003KT 36/13 A3007 RMK A01 T03580125  RH  025%=      5-min Rain = 0
KPD2 142312Z 35003KT 36/13 A3007 RMK A01 T03580128  RH  025%=      5-min Rain = 0
KPD2 142313Z 35004KT 36/13 A3007 RMK A01 T03580126  RH  025%=      5-min Rain = 0
KPD2 142314Z 36002KT 36/12 A3007 RMK A01 T03580124  RH  024%=      5-min Rain = 0
KPD2 142315Z 33001KT 36/12 A3007 RMK A01 T03570123  RH  024%=      5-min Rain = 0
KPD2 142316Z 31001KT 36/12 A3007 RMK A01 T03560123  RH  025%=      5-min Rain = 0
KPD2 142317Z 33002KT 36/12 A3007 RMK A01 T03560124  RH  025%=      5-min Rain = 0
KPD2 142318Z 29001KT 36/12 A3007 RMK A01 T03570123  RH  024%=      5-min Rain = 0
KPD2 142319Z 34002KT 36/13 A3007 RMK A01 T03580126  RH  025%=      5-min Rain = 0
KPD2 142320Z 04002KT 36/13 A3007 RMK A01 T03600127  RH  025%=      5-min Rain = 0
KPD2 142321Z 01005KT 36/13 A3007 RMK A01 T03610125  RH  024%=      5-min Rain = 0
KPD2 142322Z 01006KT 36/13 A3007 RMK A01 T03600126  RH  024%=      5-min Rain = 0
KPD2 142323Z 02005KT 36/13 A3007 RMK A01 T03590126  RH  025%=      5-min Rain = 0
KPD2 142324Z 02005KT 36/13 A3007 RMK A01 T03570125  RH  025%=      5-min Rain = 0
KPD2 142325Z 01005KT 36/13 A3007 RMK A01 T03560127  RH  025%=      5-min Rain = 0
KPD2 142326Z 34005KT 36/12 A3007 RMK A01 T03570124  RH  025%=      5-min Rain = 0
KPD2 142327Z 34005KT 36/13 A3007 RMK A01 T03570125  RH  025%=      5-min Rain = 0
KPD2 142328Z 32005KT 36/13 A3007 RMK A01 T03550125  RH  025%=      5-min Rain = 0
KPD2 142329Z 32005KT 35/12 A3007 RMK A01 T03530124  RH  025%=      5-min Rain = 0
KPD2 142330Z 32003KT 35/12 A3007 RMK A01 T03520123  RH  025%=      5-min Rain = 0
KPD2 142331Z 35005KT 35/12 A3007 RMK A01 T03510124  RH  025%=      5-min Rain = 0
KPD2 142332Z 33004KT 35/13 A3007 RMK A01 T03530125  RH  025%=      5-min Rain = 0
KPD2 142333Z 33003KT 36/13 A3007 RMK A01 T03550126  RH  025%=      5-min Rain = 0
KPD2 142334Z 31003KT 36/13 A3007 RMK A01 T03560127  RH  025%=      5-min Rain = 0
KPD2 142335Z 31005KT 36/13 A3007 RMK A01 T03570125  RH  025%=      5-min Rain = 0
KPD2 142336Z 32007KT 36/12 A3007 RMK A01 T03550123  RH  025%=      5-min Rain = 0
KPD2 142337Z 33004KT 35/12 A3007 RMK A01 T03520124  RH  025%=      5-min Rain = 0
KPD2 142338Z 33006KT 35/13 A3007 RMK A01 T03520125  RH  025%=      5-min Rain = 0
KPD2 142339Z 35005KT 35/13 A3007 RMK A01 T03520125  RH  025%=      5-min Rain = 0
KPD2 142340Z 03007KT 35/13 A3007 RMK A01 T03530125  RH  025%=      5-min Rain = 0
KPD2 142341Z 01005KT 35/12 A3007 RMK A01 T03540122  RH  025%=      5-min Rain = 0
KPD2 142342Z 06002KT 35/12 A3006 RMK A01 T03530123  RH  025%=      5-min Rain = 0
KPD2 142343Z 03001KT 35/12 A3006 RMK A01 T03530122  RH  025%=      5-min Rain = 0
KPD2 142344Z 36003KT 35/12 A3006 RMK A01 T03540124  RH  025%=      5-min Rain = 0
KPD2 142345Z 35004KT 35/13 A3006 RMK A01 T03530125  RH  025%=      5-min Rain = 0
KPD2 142346Z 35005KT 35/13 A3006 RMK A01 T03540125  RH  025%=      5-min Rain = 0
KPD2 142347Z 35005KT 36/12 A3006 RMK A01 T03550123  RH  025%=      5-min Rain = 0
KPD2 142348Z 02001KT 35/12 A3006 RMK A01 T03540123  RH  025%=      5-min Rain = 0
KPD2 142349Z 34003KT 35/12 A3006 RMK A01 T03530123  RH  025%=      5-min Rain = 0
KPD2 142350Z 35002KT 35/12 A3006 RMK A01 T03520124  RH  025%=      5-min Rain = 0
KPD2 142351Z 36003KT 35/12 A3006 RMK A01 T03530122  RH  025%=      5-min Rain = 0
KPD2 142352Z 32002KT 35/12 A3006 RMK A01 T03530123  RH  025%=      5-min Rain = 0
KPD2 142353Z 08002KT 36/12 A3006 RMK A01 T03550123  RH  025%=      5-min Rain = 0
KPD2 142354Z 15002KT 36/12 A3006 RMK A01 T03550121  RH  024%=      5-min Rain = 0
KPD2 142355Z 15002KT 35/12 A3006 RMK A01 T03530120  RH  024%=      5-min Rain = 0
KPD2 142356Z 10003KT 35/12 A3006 RMK A01 T03520123  RH  025%=      5-min Rain = 0
KPD2 142357Z 10003KT 35/12 A3006 RMK A01 T03520121  RH  025%=      5-min Rain = 0
KPD2 142358Z 12004KT 35/12 A3006 RMK A01 T03520124  RH  025%=      5-min Rain = 0
KPD2 142359Z 08003KT 35/12 A3007 RMK A01 T03520122  RH  025%=      5-min Rain = 0
KPD2 150000Z 10003KT 35/12 A3007 RMK A01 T03520122  RH  025%=      5-min Rain = 0
KPD2 150001Z 05006KT 35/12 A3007 RMK A01 T03520120  RH  025%=      5-min Rain = 0
KPD2 150002Z 06002KT 35/12 A3007 RMK A01 T03490121  RH  025%=      5-min Rain = 0
KPD2 150003Z 11004KT 35/12 A3007 RMK A01 T03480121  RH  025%=      5-min Rain = 0
KPD2 150004Z 10004KT 35/12 A3007 RMK A01 T03480119  RH  025%=      5-min Rain = 0
KPD2 150005Z 12003KT 35/12 A3007 RMK A01 T03480119  RH  025%=      5-min Rain = 0
KPD2 150006Z 11006KT 35/12 A3007 RMK A01 T03470119  RH  025%=      5-min Rain = 0
KPD2 150007Z 08003KT 35/12 A3007 RMK A01 T03470119  RH  025%=      5-min Rain = 0
KPD2 150008Z 09004KT 35/12 A3007 RMK A01 T03470119  RH  025%=      5-min Rain = 0
KPD2 150009Z 10004KT 35/12 A3007 RMK A01 T03460119  RH  025%=      5-min Rain = 0
KPD2 150010Z 09003KT 35/12 A3007 RMK A01 T03450120  RH  026%=      5-min Rain = 0
KPD2 150011Z 11004KT 35/12 A3007 RMK A01 T03450120  RH  026%=      5-min Rain = 0
KPD2 150012Z 11003KT 35/12 A3007 RMK A01 T03460119  RH  025%=      5-min Rain = 0
KPD2 150013Z 12004KT 35/12 A3007 RMK A01 T03450120  RH  026%=      5-min Rain = 0
KPD2 150014Z 11004KT 35/12 A3007 RMK A01 T03450123  RH  026%=      5-min Rain = 0
KPD2 150015Z 11003KT 35/12 A3007 RMK A01 T03460123  RH  026%=      5-min Rain = 0
KPD2 150016Z 09005KT 35/12 A3007 RMK A01 T03460124  RH  026%=      5-min Rain = 0
KPD2 150017Z 12006KT 35/13 A3007 RMK A01 T03450126  RH  027%=      5-min Rain = 0
KPD2 150018Z 12007KT 35/13 A3007 RMK A01 T03450125  RH  027%=      5-min Rain = 0
KPD2 150019Z 11004KT 35/13 A3007 RMK A01 T03450125  RH  026%=      5-min Rain = 0
KPD2 150020Z 12005KT 35/13 A3007 RMK A01 T03450125  RH  026%=      5-min Rain = 0
KPD2 150021Z 11007KT 35/13 A3007 RMK A01 T03450125  RH  027%=      5-min Rain = 0
KPD2 150022Z 11005KT 34/13 A3007 RMK A01 T03440126  RH  027%=      5-min Rain = 0
KPD2 150023Z 09004KT 34/13 A3007 RMK A01 T03440126  RH  027%=      5-min Rain = 0
KPD2 150024Z 06002KT 34/13 A3007 RMK A01 T03440125  RH  027%=      5-min Rain = 0
KPD2 150025Z 10002KT 34/13 A3007 RMK A01 T03430125  RH  027%=      5-min Rain = 0
KPD2 150026Z 08003KT 34/13 A3007 RMK A01 T03420125  RH  027%=      5-min Rain = 0
KPD2 150027Z 10004KT 34/13 A3007 RMK A01 T03410125  RH  027%=      5-min Rain = 0
KPD2 150028Z 11003KT 34/13 A3007 RMK A01 T03410126  RH  027%=      5-min Rain = 0
KPD2 150029Z 13005KT 34/13 A3007 RMK A01 T03410126  RH  027%=      5-min Rain = 0
KPD2 150030Z 11003KT 34/13 A3007 RMK A01 T03410127  RH  027%=      5-min Rain = 0
KPD2 150031Z 12005KT 34/13 A3007 RMK A01 T03430127  RH  027%=      5-min Rain = 0
KPD2 150032Z 12005KT 34/13 A3007 RMK A01 T03430126  RH  027%=      5-min Rain = 0
KPD2 150033Z 11004KT 34/13 A3007 RMK A01 T03430126  RH  027%=      5-min Rain = 0
KPD2 150034Z 11005KT 34/13 A3007 RMK A01 T03430126  RH  027%=      5-min Rain = 0
KPD2 150035Z 09005KT 34/13 A3007 RMK A01 T03420126  RH  027%=      5-min Rain = 0
KPD2 150036Z 07005KT 34/13 A3007 RMK A01 T03400126  RH  027%=      5-min Rain = 0
KPD2 150037Z 08005KT 34/13 A3007 RMK A01 T03380125  RH  028%=      5-min Rain = 0
KPD2 150038Z 06003KT 34/13 A3007 RMK A01 T03370126  RH  028%=      5-min Rain = 0
KPD2 150039Z 07001KT 34/13 A3007 RMK A01 T03360128  RH  028%=      5-min Rain = 0
KPD2 150040Z 13004G9KT 34/13 A3007 RMK A01 T03350127  RH  028%=      5-min Rain = 0
KPD2 150041Z 11007KT 34/13 A3007 RMK A01 T03350128  RH  028%=      5-min Rain = 0
KPD2 150042Z 10005KT 34/13 A3007 RMK A01 T03350128  RH  028%=      5-min Rain = 0
KPD2 150043Z 11004KT 34/13 A3007 RMK A01 T03350127  RH  028%=      5-min Rain = 0
KPD2 150044Z 10005KT 34/13 A3007 RMK A01 T03350128  RH  029%=      5-min Rain = 0
KPD2 150045Z 11006KT 33/13 A3007 RMK A01 T03340127  RH  029%=      5-min Rain = 0
KPD2 150046Z 11005KT 33/13 A3007 RMK A01 T03330127  RH  029%=      5-min Rain = 0
KPD2 150047Z 11005KT 33/13 A3007 RMK A01 T03330128  RH  029%=      5-min Rain = 0
KPD2 150048Z 11004KT 33/13 A3007 RMK A01 T03330128  RH  029%=      5-min Rain = 0
KPD2 150049Z 07004KT 33/13 A3007 RMK A01 T03320127  RH  029%=      5-min Rain = 0
KPD2 150050Z 11003KT 33/13 A3007 RMK A01 T03310126  RH  029%=      5-min Rain = 0
KPD2 150051Z 12006KT 33/13 A3007 RMK A01 T03300127  RH  029%=      5-min Rain = 0
KPD2 150052Z 12004KT 33/13 A3007 RMK A01 T03300127  RH  029%=      5-min Rain = 0
KPD2 150053Z 08003KT 33/13 A3007 RMK A01 T03290127  RH  029%=      5-min Rain = 0
KPD2 150054Z 11004KT 33/13 A3007 RMK A01 T03280127  RH  029%=      5-min Rain = 0
KPD2 150055Z 10004KT 33/13 A3007 RMK A01 T03280126  RH  029%=      5-min Rain = 0
KPD2 150056Z 10003KT 33/13 A3007 RMK A01 T03270127  RH  030%=      5-min Rain = 0
KPD2 150057Z 05003KT 33/13 A3007 RMK A01 T03260127  RH  030%=      5-min Rain = 0
KPD2 150058Z 10004KT 33/13 A3007 RMK A01 T03250126  RH  030%=      5-min Rain = 0
KPD2 150059Z 10002KT 33/13 A3007 RMK A01 T03250126  RH  030%=      5-min Rain = 0
KPD2 150100Z 10006KT 32/13 A3007 RMK A01 T03240126  RH  030%=      5-min Rain = 0
KPD2 150101Z 08004KT 32/13 A3007 RMK A01 T03240126  RH  030%=      5-min Rain = 0
KPD2 150102Z 08005KT 32/13 A3007 RMK A01 T03240126  RH  030%=      5-min Rain = 0
KPD2 150103Z 11005KT 32/13 A3007 RMK A01 T03230126  RH  030%=      5-min Rain = 0
KPD2 150104Z 09004KT 32/13 A3007 RMK A01 T03230126  RH  030%=      5-min Rain = 0
KPD2 150105Z 10004KT 32/13 A3008 RMK A01 T03220126  RH  030%=      5-min Rain = 0
KPD2 150106Z 10005KT 32/13 A3008 RMK A01 T03220126  RH  030%=      5-min Rain = 0
KPD2 150107Z 09004KT 32/13 A3008 RMK A01 T03220126  RH  030%=      5-min Rain = 0
KPD2 150108Z 09004KT 32/13 A3008 RMK A01 T03210126  RH  030%=      5-min Rain = 0
KPD2 150109Z 10006KT 32/13 A3008 RMK A01 T03210126  RH  030%=      5-min Rain = 0
KPD2 150110Z 10008KT 32/13 A3008 RMK A01 T03210126  RH  030%=      5-min Rain = 0
KPD2 150111Z 10005KT 32/13 A3008 RMK A01 T03200125  RH  030%=      5-min Rain = 0
KPD2 150112Z 09005KT 32/13 A3008 RMK A01 T03200125  RH  031%=      5-min Rain = 0
KPD2 150113Z 09006KT 32/13 A3008 RMK A01 T03200125  RH  031%=      5-min Rain = 0
KPD2 150114Z 10006KT 32/13 A3008 RMK A01 T03200126  RH  031%=      5-min Rain = 0
KPD2 150115Z 10006KT 32/13 A3008 RMK A01 T03190126  RH  031%=      5-min Rain = 0
KPD2 150116Z 10006KT 32/13 A3008 RMK A01 T03190127  RH  031%=      5-min Rain = 0
KPD2 150117Z 10007KT 32/13 A3008 RMK A01 T03190127  RH  031%=      5-min Rain = 0
KPD2 150118Z 08005KT 32/13 A3008 RMK A01 T03190128  RH  031%=      5-min Rain = 0
KPD2 150119Z 10007KT 32/13 A3008 RMK A01 T03180128  RH  031%=      5-min Rain = 0
KPD2 150120Z 09005KT 32/13 A3008 RMK A01 T03180128  RH  031%=      5-min Rain = 0
KPD2 150121Z 09006KT 32/13 A3008 RMK A01 T03180128  RH  031%=      5-min Rain = 0
KPD2 150122Z 09006KT 32/13 A3008 RMK A01 T03180128  RH  031%=      5-min Rain = 0
KPD2 150123Z 09006KT 32/13 A3008 RMK A01 T03170128  RH  032%=      5-min Rain = 0
KPD2 150124Z 09008KT 32/13 A3008 RMK A01 T03170129  RH  032%=      5-min Rain = 0
KPD2 150125Z 08007KT 32/13 A3008 RMK A01 T03170130  RH  032%=      5-min Rain = 0
KPD2 150126Z 10008KT 32/13 A3008 RMK A01 T03170131  RH  032%=      5-min Rain = 0
KPD2 150127Z 09007KT 32/13 A3008 RMK A01 T03170131  RH  032%=      5-min Rain = 0
KPD2 150128Z 10007KT 32/13 A3008 RMK A01 T03170131  RH  032%=      5-min Rain = 0
KPD2 150129Z 10007KT 32/13 A3008 RMK A01 T03160131  RH  032%=      5-min Rain = 0
KPD2 150130Z 09006KT 32/13 A3008 RMK A01 T03160131  RH  032%=      5-min Rain = 0
KPD2 150131Z 10006KT 32/13 A3008 RMK A01 T03160131  RH  033%=      5-min Rain = 0
KPD2 150132Z 09006KT 32/13 A3008 RMK A01 T03160131  RH  033%=      5-min Rain = 0
KPD2 150133Z 09006KT 32/13 A3008 RMK A01 T03150131  RH  032%=      5-min Rain = 0
KPD2 150134Z 09005KT 32/13 A3008 RMK A01 T03150131  RH  033%=      5-min Rain = 0
KPD2 150135Z 10006KT 32/13 A3008 RMK A01 T03150131  RH  033%=      5-min Rain = 0
KPD2 150136Z 08007KT 32/13 A3008 RMK A01 T03150130  RH  032%=      5-min Rain = 0
KPD2 150137Z 09006KT 32/13 A3009 RMK A01 T03150131  RH  032%=      5-min Rain = 0
KPD2 150138Z 10007KT 32/13 A3009 RMK A01 T03150131  RH  033%=      5-min Rain = 0
KPD2 150139Z 10007KT 32/13 A3009 RMK A01 T03150131  RH  033%=      5-min Rain = 0
KPD2 150140Z 10007KT 32/13 A3009 RMK A01 T03150131  RH  033%=      5-min Rain = 0
KPD2 150141Z 10008KT 32/13 A3009 RMK A01 T03150131  RH  033%=      5-min Rain = 0
KPD2 150142Z 10007KT 31/13 A3009 RMK A01 T03140131  RH  033%=      5-min Rain = 0
KPD2 150143Z 10005KT 31/13 A3009 RMK A01 T03140131  RH  033%=      5-min Rain = 0
KPD2 150144Z 10007KT 31/13 A3009 RMK A01 T03140131  RH  033%=      5-min Rain = 0
KPD2 150145Z 10006KT 31/13 A3009 RMK A01 T03140130  RH  033%=      5-min Rain = 0
KPD2 150146Z 10007KT 31/13 A3009 RMK A01 T03140131  RH  033%=      5-min Rain = 0
KPD2 150147Z 10007KT 31/13 A3009 RMK A01 T03140131  RH  033%=      5-min Rain = 0
KPD2 150148Z 08005KT 31/13 A3009 RMK A01 T03130131  RH  033%=      5-min Rain = 0
KPD2 150149Z 10004KT 31/13 A3009 RMK A01 T03130130  RH  033%=      5-min Rain = 0
KPD2 150150Z 11007KT 31/13 A3009 RMK A01 T03130131  RH  033%=      5-min Rain = 0
KPD2 150151Z 09007KT 31/13 A3009 RMK A01 T03130131  RH  033%=      5-min Rain = 0
KPD2 150152Z 11005KT 31/13 A3009 RMK A01 T03130130  RH  033%=      5-min Rain = 0
KPD2 150153Z 11005KT 31/13 A3009 RMK A01 T03130131  RH  033%=      5-min Rain = 0
KPD2 150154Z 10006G11KT 31/13 A3009 RMK A01 T03130130  RH  033%=      5-min Rain = 0
KPD2 150155Z 10005KT 31/13 A3009 RMK A01 T03120130  RH  033%=      5-min Rain = 0
KPD2 150156Z 12004KT 31/13 A3009 RMK A01 T03120130  RH  033%=      5-min Rain = 0
KPD2 150157Z 10005KT 31/13 A3009 RMK A01 T03120131  RH  033%=      5-min Rain = 0
KPD2 150158Z 11005KT 31/13 A3009 RMK A01 T03110130  RH  033%=      5-min Rain = 0
KPD2 150159Z 12006KT 31/13 A3009 RMK A01 T03110130  RH  033%=      5-min Rain = 0
KPD2 150200Z 11008KT 31/13 A3009 RMK A01 T03110131  RH  033%=      5-min Rain = 0
KPD2 150201Z 10007KT 31/13 A3009 RMK A01 T03110131  RH  033%=      5-min Rain = 0
KPD2 150202Z 10007KT 31/13 A3009 RMK A01 T03110131  RH  033%=      5-min Rain = 0
KPD2 150203Z 11005KT 31/13 A3009 RMK A01 T03110131  RH  033%=      5-min Rain = 0
KPD2 150204Z 13003KT 31/13 A3009 RMK A01 T03110131  RH  033%=      5-min Rain = 0
KPD2 150205Z 14005KT 31/13 A3009 RMK A01 T03110131  RH  033%=      5-min Rain = 0
KPD2 150206Z 12005KT 31/13 A301 RMK A01 T03100131  RH  034%=      5-min Rain = 0
KPD2 150207Z 11004KT 31/13 A301 RMK A01 T03090131  RH  034%=      5-min Rain = 0
KPD2 150208Z 13004KT 31/13 A301 RMK A01 T03080131  RH  034%=      5-min Rain = 0
KPD2 150209Z 16003KT 31/13 A301 RMK A01 T03080131  RH  034%=      5-min Rain = 0
KPD2 150210Z 11003KT 31/13 A301 RMK A01 T03070131  RH  034%=      5-min Rain = 0
KPD2 150211Z 13004KT 31/13 A301 RMK A01 T03060131  RH  034%=      5-min Rain = 0
KPD2 150212Z 15003KT 31/13 A301 RMK A01 T03050131  RH  034%=      5-min Rain = 0
KPD2 150213Z 15002KT 31/13 A301 RMK A01 T03050132  RH  035%=      5-min Rain = 0
KPD2 150214Z 12004KT 30/13 A301 RMK A01 T03030131  RH  035%=      5-min Rain = 0
KPD2 150215Z 14005KT 30/13 A301 RMK A01 T03030131  RH  035%=      5-min Rain = 0
KPD2 150216Z 13005KT 30/13 A301 RMK A01 T03020132  RH  035%=      5-min Rain = 0
KPD2 150217Z 14003KT 30/13 A301 RMK A01 T03020132  RH  035%=      5-min Rain = 0
KPD2 150218Z 15003KT 30/13 A301 RMK A01 T03020131  RH  035%=      5-min Rain = 0
KPD2 150219Z 12006KT 30/13 A301 RMK A01 T03020132  RH  035%=      5-min Rain = 0
KPD2 150220Z 14003KT 30/13 A301 RMK A01 T03010132  RH  035%=      5-min Rain = 0
KPD2 150221Z 11003KT 30/13 A301 RMK A01 T03010132  RH  035%=      5-min Rain = 0
KPD2 150222Z 12002KT 30/13 A301 RMK A01 T03010132  RH  036%=      5-min Rain = 0
KPD2 150223Z 11003KT 30/13 A301 RMK A01 T03010133  RH  036%=      5-min Rain = 0
KPD2 150224Z 11007G12KT 30/13 A301 RMK A01 T03010134  RH  036%=      5-min Rain = 0
KPD2 150225Z 11007KT 30/14 A301 RMK A01 T03010136  RH  036%=      5-min Rain = 0
KPD2 150226Z 13007KT 30/14 A301 RMK A01 T03020137  RH  037%=      5-min Rain = 0
KPD2 150227Z 13006KT 30/14 A301 RMK A01 T03030138  RH  037%=      5-min Rain = 0
KPD2 150228Z 15006KT 30/14 A301 RMK A01 T03030136  RH  036%=      5-min Rain = 0
KPD2 150229Z 14006KT 30/14 A301 RMK A01 T03020135  RH  036%=      5-min Rain = 0
KPD2 150230Z 15006KT 30/14 A301 RMK A01 T03010137  RH  037%=      5-min Rain = 0
KPD2 150231Z 15005KT 30/14 A301 RMK A01 T03000136  RH  037%=      5-min Rain = 0
KPD2 150232Z 15005KT 30/14 A301 RMK A01 T02990136  RH  037%=      5-min Rain = 0
KPD2 150233Z 15007KT 30/14 A301 RMK A01 T02990137  RH  037%=      5-min Rain = 0
KPD2 150234Z 16005KT 30/14 A301 RMK A01 T02980137  RH  037%=      5-min Rain = 0
KPD2 150235Z 15006KT 30/14 A301 RMK A01 T02970137  RH  038%=      5-min Rain = 0
KPD2 150236Z 15006KT 30/14 A3011 RMK A01 T02970138  RH  038%=      5-min Rain = 0
KPD2 150237Z 15006KT 30/14 A3011 RMK A01 T02960138  RH  038%=      5-min Rain = 0
KPD2 150238Z 16006KT 30/14 A3011 RMK A01 T02950138  RH  038%=      5-min Rain = 0
KPD2 150239Z 14007KT 30/14 A3011 RMK A01 T02950139  RH  039%=      5-min Rain = 0
KPD2 150240Z 14007KT 30/14 A3011 RMK A01 T02950141  RH  039%=      5-min Rain = 0
KPD2 150241Z 15007KT 30/14 A3011 RMK A01 T02950141  RH  039%=      5-min Rain = 0
KPD2 150242Z 14006KT 30/14 A3011 RMK A01 T02950141  RH  039%=      5-min Rain = 0
KPD2 150243Z 15007KT 30/14 A3011 RMK A01 T02950142  RH  039%=      5-min Rain = 0
KPD2 150244Z 15008KT 30/14 A3011 RMK A01 T02950142  RH  039%=      5-min Rain = 0
KPD2 150245Z 15005KT 30/14 A3011 RMK A01 T02950142  RH  039%=      5-min Rain = 0
KPD2 150246Z 14007KT 30/14 A3011 RMK A01 T02950143  RH  039%=      5-min Rain = 0
KPD2 150247Z 15005KT 30/14 A3011 RMK A01 T02950143  RH  040%=      5-min Rain = 0
KPD2 150248Z 14005KT 30/14 A3011 RMK A01 T02950144  RH  040%=      5-min Rain = 0
KPD2 150249Z 14005KT 30/14 A3011 RMK A01 T02950144  RH  040%=      5-min Rain = 0
KPD2 150250Z 15006KT 30/14 A3011 RMK A01 T02950144  RH  040%=      5-min Rain = 0
KPD2 150251Z 14006KT 30/14 A3011 RMK A01 T02950144  RH  040%=      5-min Rain = 0
KPD2 150252Z 15005KT 30/14 A3011 RMK A01 T02950144  RH  040%=      5-min Rain = 0
KPD2 150253Z 14005KT 30/15 A3011 RMK A01 T02950145  RH  040%=      5-min Rain = 0
KPD2 150254Z 14006KT 29/15 A3011 RMK A01 T02940146  RH  040%=      5-min Rain = 0
KPD2 150255Z 15005KT 30/15 A3011 RMK A01 T02950146  RH  040%=      5-min Rain = 0
KPD2 150256Z 16005KT 30/15 A3011 RMK A01 T02950146  RH  040%=      5-min Rain = 0
KPD2 150257Z 14005KT 30/15 A3011 RMK A01 T02950146  RH  040%=      5-min Rain = 0
KPD2 150258Z 15006KT 30/15 A3011 RMK A01 T02950147  RH  040%=      5-min Rain = 0
KPD2 150259Z 16005KT 30/15 A3011 RMK A01 T02950147  RH  040%=      5-min Rain = 0
KPD2 150300Z 15005KT 30/15 A3011 RMK A01 T02950146  RH  040%=      5-min Rain = 0
KPD2 150301Z 16005KT 29/15 A3011 RMK A01 T02940146  RH  040%=      5-min Rain = 0
KPD2 150302Z 15006KT 29/15 A3011 RMK A01 T02940146  RH  041%=      5-min Rain = 0
KPD2 150303Z 16005KT 29/15 A3012 RMK A01 T02930146  RH  041%=      5-min Rain = 0
KPD2 150304Z 16005KT 29/15 A3012 RMK A01 T02920146  RH  041%=      5-min Rain = 0
KPD2 150305Z 16005KT 29/15 A3012 RMK A01 T02920146  RH  041%=      5-min Rain = 0
KPD2 150306Z 15006KT 29/15 A3012 RMK A01 T02920147  RH  041%=      5-min Rain = 0
KPD2 150307Z 15005KT 29/15 A3012 RMK A01 T02910147  RH  041%=      5-min Rain = 0
KPD2 150308Z 15005KT 29/15 A3012 RMK A01 T02910147  RH  041%=      5-min Rain = 0
KPD2 150309Z 16006KT 29/15 A3012 RMK A01 T02910147  RH  041%=      5-min Rain = 0
KPD2 150310Z 15005KT 29/15 A3012 RMK A01 T02910148  RH  042%=      5-min Rain = 0
KPD2 150311Z 15005KT 29/15 A3012 RMK A01 T02910148  RH  042%=      5-min Rain = 0
KPD2 150312Z 15006KT 29/15 A3012 RMK A01 T02910147  RH  042%=      5-min Rain = 0
KPD2 150313Z 15005KT 29/15 A3012 RMK A01 T02910147  RH  042%=      5-min Rain = 0
KPD2 150314Z 15006KT 29/15 A3012 RMK A01 T02910148  RH  042%=      5-min Rain = 0
KPD2 150315Z 15006KT 29/15 A3012 RMK A01 T02920148  RH  042%=      5-min Rain = 0
KPD2 150316Z 15006KT 29/15 A3012 RMK A01 T02910148  RH  042%=      5-min Rain = 0
KPD2 150317Z 16007KT 29/15 A3012 RMK A01 T02910148  RH  042%=      5-min Rain = 0
KPD2 150318Z 15005KT 29/15 A3012 RMK A01 T02910148  RH  042%=      5-min Rain = 0
KPD2 150319Z 15005KT 29/15 A3012 RMK A01 T02910148  RH  042%=      5-min Rain = 0
KPD2 150320Z 15005KT 29/15 A3012 RMK A01 T02910148  RH  042%=      5-min Rain = 0
KPD2 150321Z 16005KT 29/15 A3012 RMK A01 T02910148  RH  042%=      5-min Rain = 0
KPD2 150322Z 15006KT 29/15 A3012 RMK A01 T02910148  RH  042%=      5-min Rain = 0
KPD2 150323Z 15005KT 29/15 A3013 RMK A01 T02910148  RH  042%=      5-min Rain = 0
KPD2 150324Z 15005KT 29/15 A3013 RMK A01 T02900148  RH  042%=      5-min Rain = 0
KPD2 150325Z 14005KT 29/15 A3013 RMK A01 T02900147  RH  042%=      5-min Rain = 0
KPD2 150326Z 14007KT 29/15 A3013 RMK A01 T02900147  RH  042%=      5-min Rain = 0
KPD2 150327Z 14005KT 29/15 A3013 RMK A01 T02900147  RH  042%=      5-min Rain = 0
KPD2 150328Z 14006KT 29/15 A3013 RMK A01 T02910147  RH  041%=      5-min Rain = 0
KPD2 150329Z 15005KT 29/15 A3013 RMK A01 T02910147  RH  041%=      5-min Rain = 0
KPD2 150330Z 14005KT 29/15 A3013 RMK A01 T02910147  RH  041%=      5-min Rain = 0
KPD2 150331Z 14006KT 29/15 A3013 RMK A01 T02910147  RH  041%=      5-min Rain = 0
KPD2 150332Z 13006KT 29/15 A3013 RMK A01 T02910147  RH  041%=      5-min Rain = 0
KPD2 150333Z 14005KT 29/15 A3013 RMK A01 T02910147  RH  041%=      5-min Rain = 0
KPD2 150334Z 14005KT 29/15 A3013 RMK A01 T02910147  RH  041%=      5-min Rain = 0
KPD2 150335Z 15005KT 29/15 A3013 RMK A01 T02910147  RH  042%=      5-min Rain = 0
KPD2 150336Z 14004KT 29/15 A3014 RMK A01 T02900147  RH  042%=      5-min Rain = 0
KPD2 150337Z 14005KT 29/15 A3014 RMK A01 T02900147  RH  042%=      5-min Rain = 0
KPD2 150338Z 13006KT 29/15 A3014 RMK A01 T02900147  RH  042%=      5-min Rain = 0
KPD2 150339Z 13006KT 29/15 A3014 RMK A01 T02900146  RH  042%=      5-min Rain = 0
KPD2 150340Z 14007KT 29/15 A3014 RMK A01 T02900146  RH  041%=      5-min Rain = 0
KPD2 150341Z 15006KT 29/15 A3014 RMK A01 T02900145  RH  041%=      5-min Rain = 0
KPD2 150342Z 14007KT 29/15 A3014 RMK A01 T02900145  RH  041%=      5-min Rain = 0
KPD2 150343Z 14006KT 29/15 A3014 RMK A01 T02900145  RH  041%=      5-min Rain = 0
KPD2 150344Z 14005KT 29/15 A3014 RMK A01 T02910146  RH  041%=      5-min Rain = 0
KPD2 150345Z 14005KT 29/15 A3014 RMK A01 T02910146  RH  041%=      5-min Rain = 0
KPD2 150346Z 14006KT 29/15 A3014 RMK A01 T02900146  RH  041%=      5-min Rain = 0
KPD2 150347Z 14006KT 29/15 A3014 RMK A01 T02900146  RH  041%=      5-min Rain = 0
KPD2 150348Z 14006KT 29/15 A3014 RMK A01 T02900146  RH  041%=      5-min Rain = 0
KPD2 150349Z 14006KT 29/15 A3014 RMK A01 T02900146  RH  041%=      5-min Rain = 0
KPD2 150350Z 14006KT 29/15 A3014 RMK A01 T02900146  RH  042%=      5-min Rain = 0
KPD2 150351Z 14006KT 29/15 A3014 RMK A01 T02890146  RH  042%=      5-min Rain = 0
KPD2 150352Z 14006KT 29/15 A3014 RMK A01 T02900146  RH  042%=      5-min Rain = 0
KPD2 150353Z 14007KT 29/15 A3014 RMK A01 T02890146  RH  042%=      5-min Rain = 0
KPD2 150354Z 14009KT 29/15 A3014 RMK A01 T02900147  RH  042%=      5-min Rain = 0
KPD2 150355Z 14008KT 29/15 A3015 RMK A01 T02900147  RH  042%=      5-min Rain = 0
KPD2 150356Z 14007KT 29/15 A3015 RMK A01 T02900146  RH  042%=      5-min Rain = 0
KPD2 150357Z 14007KT 29/15 A3015 RMK A01 T02900147  RH  042%=      5-min Rain = 0
KPD2 150358Z 14006KT 29/15 A3015 RMK A01 T02900147  RH  042%=      5-min Rain = 0
KPD2 150359Z 14005KT 29/15 A3015 RMK A01 T02900147  RH  042%=      5-min Rain = 0
KPD2 150400Z 14004KT 29/15 A3015 RMK A01 T02900147  RH  042%=      5-min Rain = 0
KPD2 150401Z 13005KT 29/15 A3015 RMK A01 T02890148  RH  042%=      5-min Rain = 0
KPD2 150402Z 14004KT 29/15 A3015 RMK A01 T02890148  RH  042%=      5-min Rain = 0
KPD2 150403Z 14005KT 29/15 A3015 RMK A01 T02890148  RH  042%=      5-min Rain = 0
KPD2 150404Z 14005KT 29/15 A3015 RMK A01 T02890148  RH  042%=      5-min Rain = 0
KPD2 150405Z 15005KT 29/15 A3015 RMK A01 T02880148  RH  042%=      5-min Rain = 0
KPD2 150406Z 14005KT 29/15 A3015 RMK A01 T02880148  RH  042%=      5-min Rain = 0
KPD2 150407Z 14006KT 29/15 A3015 RMK A01 T02880148  RH  042%=      5-min Rain = 0
KPD2 150408Z 14006KT 29/15 A3015 RMK A01 T02880149  RH  043%=      5-min Rain = 0
KPD2 150409Z 15005KT 29/15 A3015 RMK A01 T02880150  RH  043%=      5-min Rain = 0
KPD2 150410Z 15005KT 29/15 A3015 RMK A01 T02870150  RH  043%=      5-min Rain = 0
KPD2 150411Z 15006KT 29/15 A3015 RMK A01 T02870149  RH  043%=      5-min Rain = 0
KPD2 150412Z 14005KT 29/15 A3015 RMK A01 T02860150  RH  043%=      5-min Rain = 0
KPD2 150413Z 15004KT 29/15 A3015 RMK A01 T02860150  RH  044%=      5-min Rain = 0
KPD2 150414Z 15005KT 29/15 A3015 RMK A01 T02860150  RH  044%=      5-min Rain = 0
KPD2 150415Z 15005KT 29/15 A3015 RMK A01 T02860150  RH  044%=      5-min Rain = 0
KPD2 150416Z 15004KT 29/15 A3015 RMK A01 T02850150  RH  044%=      5-min Rain = 0
KPD2 150417Z 14005KT 29/15 A3015 RMK A01 T02850150  RH  044%=      5-min Rain = 0
KPD2 150418Z 14004KT 29/15 A3015 RMK A01 T02850150  RH  044%=      5-min Rain = 0
KPD2 150419Z 14005KT 28/15 A3015 RMK A01 T02840150  RH  044%=      5-min Rain = 0
KPD2 150420Z 14005KT 28/15 A3015 RMK A01 T02840150  RH  044%=      5-min Rain = 0
KPD2 150421Z 14006KT 28/15 A3015 RMK A01 T02840150  RH  044%=      5-min Rain = 0
KPD2 150422Z 14005KT 28/15 A3015 RMK A01 T02830150  RH  044%=      5-min Rain = 0
KPD2 150423Z 14005KT 28/15 A3015 RMK A01 T02830151  RH  044%=      5-min Rain = 0
KPD2 150424Z 14004KT 28/15 A3015 RMK A01 T02830151  RH  045%=      5-min Rain = 0
KPD2 150425Z 14005KT 28/15 A3015 RMK A01 T02830151  RH  045%=      5-min Rain = 0
KPD2 150426Z 14005KT 28/15 A3015 RMK A01 T02830152  RH  045%=      5-min Rain = 0
KPD2 150427Z 15005KT 28/15 A3015 RMK A01 T02830152  RH  045%=      5-min Rain = 0
KPD2 150428Z 15005KT 28/15 A3015 RMK A01 T02830152  RH  045%=      5-min Rain = 0
KPD2 150429Z 15005KT 28/15 A3015 RMK A01 T02830152  RH  045%=      5-min Rain = 0
KPD2 150430Z 15005KT 28/15 A3015 RMK A01 T02820152  RH  045%=      5-min Rain = 0
KPD2 150431Z 15005KT 28/15 A3015 RMK A01 T02820152  RH  045%=      5-min Rain = 0
KPD2 150432Z 15005KT 28/15 A3015 RMK A01 T02810152  RH  045%=      5-min Rain = 0
KPD2 150433Z 14005KT 28/15 A3015 RMK A01 T02810151  RH  045%=      5-min Rain = 0
KPD2 150434Z 14005KT 28/15 A3015 RMK A01 T02800151  RH  045%=      5-min Rain = 0
KPD2 150435Z 13005KT 28/15 A3015 RMK A01 T02800152  RH  045%=      5-min Rain = 0
KPD2 150436Z 13005KT 28/15 A3015 RMK A01 T02800152  RH  045%=      5-min Rain = 0
KPD2 150437Z 13004KT 28/15 A3015 RMK A01 T02800152  RH  045%=      5-min Rain = 0
KPD2 150438Z 13004KT 28/15 A3015 RMK A01 T02800152  RH  046%=      5-min Rain = 0
KPD2 150439Z 13004KT 28/15 A3015 RMK A01 T02800152  RH  046%=      5-min Rain = 0
KPD2 150440Z 13005KT 28/15 A3015 RMK A01 T02790152  RH  046%=      5-min Rain = 0
KPD2 150441Z 13006KT 28/15 A3015 RMK A01 T02790152  RH  046%=      5-min Rain = 0
KPD2 150442Z 13005KT 28/15 A3015 RMK A01 T02790152  RH  046%=      5-min Rain = 0
KPD2 150443Z 13005KT 28/15 A3015 RMK A01 T02790153  RH  046%=      5-min Rain = 0
KPD2 150444Z 13006KT 28/15 A3015 RMK A01 T02800153  RH  046%=      5-min Rain = 0
KPD2 150445Z 13006KT 28/15 A3015 RMK A01 T02800153  RH  046%=      5-min Rain = 0
KPD2 150446Z 13005KT 28/15 A3015 RMK A01 T02800154  RH  046%=      5-min Rain = 0
KPD2 150447Z 13005KT 28/15 A3015 RMK A01 T02800154  RH  046%=      5-min Rain = 0
KPD2 150448Z 13005KT 28/15 A3015 RMK A01 T02800154  RH  046%=      5-min Rain = 0
KPD2 150449Z 13005KT 28/15 A3015 RMK A01 T02800154  RH  046%=      5-min Rain = 0
KPD2 150450Z 13005KT 28/15 A3015 RMK A01 T02800154  RH  046%=      5-min Rain = 0
KPD2 150451Z 13004KT 28/16 A3015 RMK A01 T02810155  RH  046%=      5-min Rain = 0
KPD2 150452Z 13005KT 28/16 A3015 RMK A01 T02800155  RH  046%=      5-min Rain = 0
KPD2 150453Z 12005KT 28/16 A3015 RMK A01 T02800155  RH  046%=      5-min Rain = 0
KPD2 150454Z 12004KT 28/16 A3015 RMK A01 T02800155  RH  047%=      5-min Rain = 0
KPD2 150455Z 13005KT 28/16 A3015 RMK A01 T02790155  RH  047%=      5-min Rain = 0
KPD2 150456Z 13005KT 28/16 A3015 RMK A01 T02790155  RH  047%=      5-min Rain = 0
KPD2 150457Z 13005KT 28/16 A3015 RMK A01 T02790156  RH  047%=      5-min Rain = 0
KPD2 150458Z 13005KT 28/16 A3015 RMK A01 T02790156  RH  047%=      5-min Rain = 0
KPD2 150459Z 13006KT 28/16 A3015 RMK A01 T02790156  RH  047%=      5-min Rain = 0

Page generated in 0.1266 seconds.